<?xml version="1.0" encoding="UTF-8"?>
<gpx version="1.1" creator="2bulu-scraper" xmlns="http://www.topografix.com/GPX/1/1">
  <metadata><name>黄荆沟树王到山王镇</name><desc>source: 2bulu.com trackId=81193694; exported 2026-09-01T17:53:13.184Z</desc>
    <bounds minlat="29.639242" minlon="104.638601" maxlat="29.66282" maxlon="104.670611"/>
    <link href="https://www.2bulu.com/track/t-U2T4acfnyL3p%252FR2KBg5Tzw%253D%253D.htm"><text>2bulu 源页面</text></link>
  </metadata>
  <wpt lat="29.656278" lon="104.669832"><ele>735</ele><name></name></wpt>
  <wpt lat="29.657725" lon="104.670164"><ele>717</ele><name></name></wpt>
  <wpt lat="29.65811" lon="104.669876"><ele>725</ele><name></name></wpt>
  <wpt lat="29.658755" lon="104.667127"><ele>752</ele><name></name></wpt>
  <wpt lat="29.661903" lon="104.658864"><ele>769</ele><name></name></wpt>
  <wpt lat="29.661746" lon="104.658732"><ele>768</ele><name></name></wpt>
  <wpt lat="29.661493" lon="104.658992"><ele>770</ele><name></name></wpt>
  <wpt lat="29.66076" lon="104.658643"><ele>780</ele><name></name></wpt>
  <wpt lat="29.659443" lon="104.658683"><ele>752</ele><name></name></wpt>
  <wpt lat="29.656306" lon="104.658009"><ele>776</ele><name></name></wpt>
  <wpt lat="29.655851" lon="104.657365"><ele>777</ele><name></name></wpt>
  <wpt lat="29.65579" lon="104.65715"><ele>782</ele><name></name></wpt>
  <wpt lat="29.655117" lon="104.657228"><ele>776</ele><name></name></wpt>
  <wpt lat="29.654623" lon="104.655525"><ele>785</ele><name></name></wpt>
  <wpt lat="29.654415" lon="104.655178"><ele>791</ele><name></name></wpt>
  <wpt lat="29.654448" lon="104.654665"><ele>785</ele><name></name></wpt>
  <wpt lat="29.653221" lon="104.652966"><ele>794</ele><name></name></wpt>
  <wpt lat="29.653151" lon="104.652883"><ele>794</ele><name></name></wpt>
  <wpt lat="29.653053" lon="104.652766"><ele>792</ele><name></name></wpt>
  <wpt lat="29.652632" lon="104.651949"><ele>797</ele><name></name></wpt>
  <wpt lat="29.651504" lon="104.649621"><ele>729</ele><name></name></wpt>
  <wpt lat="29.650358" lon="104.649779"><ele>721</ele><name></name></wpt>
  <wpt lat="29.650402" lon="104.649689"><ele>721</ele><name></name></wpt>
  <wpt lat="29.650158" lon="104.649251"><ele>716</ele><name></name></wpt>
  <wpt lat="29.650034" lon="104.648975"><ele>712</ele><name></name></wpt>
  <wpt lat="29.650003" lon="104.648809"><ele>710</ele><name></name></wpt>
  <wpt lat="29.649627" lon="104.648377"><ele>716</ele><name></name></wpt>
  <wpt lat="29.648007" lon="104.646842"><ele>728</ele><name></name></wpt>
  <wpt lat="29.647901" lon="104.645961"><ele>730</ele><name></name></wpt>
  <wpt lat="29.647481" lon="104.646007"><ele>727</ele><name></name></wpt>
  <wpt lat="29.647006" lon="104.646002"><ele>728</ele><name></name></wpt>
  <wpt lat="29.646161" lon="104.646081"><ele>726</ele><name></name></wpt>
  <wpt lat="29.645316" lon="104.645325"><ele>727</ele><name></name></wpt>
  <trk><name>黄荆沟树王到山王镇</name>
      <trkseg>
        <trkpt lat="29.653648" lon="104.670611"><ele>711.40045</ele><time>2026-03-27T17:14:45.000Z</time></trkpt>
        <trkpt lat="29.653652" lon="104.670607"><ele>711.3781</ele><time>2026-03-27T17:14:49.000Z</time></trkpt>
        <trkpt lat="29.653684" lon="104.670576"><ele>711.63513</ele><time>2026-03-27T17:14:52.000Z</time></trkpt>
        <trkpt lat="29.653745" lon="104.670505"><ele>712.35345</ele><time>2026-03-27T17:14:57.000Z</time></trkpt>
        <trkpt lat="29.653781" lon="104.67045"><ele>712.9523</ele><time>2026-03-27T17:15:01.000Z</time></trkpt>
        <trkpt lat="29.65379" lon="104.670392"><ele>715.3426</ele><time>2026-03-27T17:15:05.000Z</time></trkpt>
        <trkpt lat="29.65379" lon="104.670342"><ele>719.726</ele><time>2026-03-27T17:15:08.000Z</time></trkpt>
        <trkpt lat="29.653811" lon="104.670282"><ele>722.4339</ele><time>2026-03-27T17:15:13.000Z</time></trkpt>
        <trkpt lat="29.653829" lon="104.670233"><ele>722.7513</ele><time>2026-03-27T17:15:18.000Z</time></trkpt>
        <trkpt lat="29.653848" lon="104.670193"><ele>722.6614</ele><time>2026-03-27T17:15:21.000Z</time></trkpt>
        <trkpt lat="29.653878" lon="104.67013"><ele>723.205</ele><time>2026-03-27T17:15:26.000Z</time></trkpt>
        <trkpt lat="29.653911" lon="104.670076"><ele>723.82385</ele><time>2026-03-27T17:15:31.000Z</time></trkpt>
        <trkpt lat="29.653933" lon="104.670026"><ele>724.8408</ele><time>2026-03-27T17:15:34.000Z</time></trkpt>
        <trkpt lat="29.653955" lon="104.66997"><ele>725.5696</ele><time>2026-03-27T17:15:38.000Z</time></trkpt>
        <trkpt lat="29.653981" lon="104.669917"><ele>725.7533</ele><time>2026-03-27T17:15:42.000Z</time></trkpt>
        <trkpt lat="29.654013" lon="104.669858"><ele>725.88763</ele><time>2026-03-27T17:15:47.000Z</time></trkpt>
        <trkpt lat="29.65405" lon="104.66981"><ele>725.57025</ele><time>2026-03-27T17:15:51.000Z</time></trkpt>
        <trkpt lat="29.654092" lon="104.669763"><ele>725.5936</ele><time>2026-03-27T17:15:56.000Z</time></trkpt>
        <trkpt lat="29.654127" lon="104.669723"><ele>725.4658</ele><time>2026-03-27T17:16:00.000Z</time></trkpt>
        <trkpt lat="29.654168" lon="104.669688"><ele>725.85266</ele><time>2026-03-27T17:16:04.000Z</time></trkpt>
        <trkpt lat="29.654225" lon="104.669663"><ele>726.8407</ele><time>2026-03-27T17:16:08.000Z</time></trkpt>
        <trkpt lat="29.654276" lon="104.669638"><ele>727.67645</ele><time>2026-03-27T17:16:12.000Z</time></trkpt>
        <trkpt lat="29.654327" lon="104.669619"><ele>728.5298</ele><time>2026-03-27T17:16:16.000Z</time></trkpt>
        <trkpt lat="29.654377" lon="104.669606"><ele>729.2936</ele><time>2026-03-27T17:16:20.000Z</time></trkpt>
        <trkpt lat="29.654427" lon="104.66959"><ele>730.1721</ele><time>2026-03-27T17:16:24.000Z</time></trkpt>
        <trkpt lat="29.654476" lon="104.669569"><ele>731.0083</ele><time>2026-03-27T17:16:28.000Z</time></trkpt>
        <trkpt lat="29.654524" lon="104.669544"><ele>731.8841</ele><time>2026-03-27T17:16:32.000Z</time></trkpt>
        <trkpt lat="29.654569" lon="104.669513"><ele>732.41205</ele><time>2026-03-27T17:16:36.000Z</time></trkpt>
        <trkpt lat="29.654619" lon="104.66948"><ele>732.7485</ele><time>2026-03-27T17:16:40.000Z</time></trkpt>
        <trkpt lat="29.654666" lon="104.669437"><ele>732.95404</ele><time>2026-03-27T17:16:45.000Z</time></trkpt>
        <trkpt lat="29.654701" lon="104.669383"><ele>733.4644</ele><time>2026-03-27T17:16:49.000Z</time></trkpt>
        <trkpt lat="29.65472" lon="104.669321"><ele>734.079</ele><time>2026-03-27T17:16:53.000Z</time></trkpt>
        <trkpt lat="29.654742" lon="104.669268"><ele>734.27344</ele><time>2026-03-27T17:16:57.000Z</time></trkpt>
        <trkpt lat="29.654794" lon="104.66924"><ele>734.74524</ele><time>2026-03-27T17:17:06.000Z</time></trkpt>
        <trkpt lat="29.654829" lon="104.669257"><ele>735.0268</ele><time>2026-03-27T17:17:09.000Z</time></trkpt>
        <trkpt lat="29.654867" lon="104.669286"><ele>735.43677</ele><time>2026-03-27T17:17:12.000Z</time></trkpt>
        <trkpt lat="29.654906" lon="104.669334"><ele>736.3508</ele><time>2026-03-27T17:17:16.000Z</time></trkpt>
        <trkpt lat="29.654934" lon="104.669383"><ele>737.43774</ele><time>2026-03-27T17:17:20.000Z</time></trkpt>
        <trkpt lat="29.654964" lon="104.66943"><ele>738.58105</ele><time>2026-03-27T17:17:24.000Z</time></trkpt>
        <trkpt lat="29.654982" lon="104.669481"><ele>739.3957</ele><time>2026-03-27T17:17:28.000Z</time></trkpt>
        <trkpt lat="29.654998" lon="104.669526"><ele>740.108</ele><time>2026-03-27T17:17:31.000Z</time></trkpt>
        <trkpt lat="29.655022" lon="104.669587"><ele>741.6693</ele><time>2026-03-27T17:17:34.000Z</time></trkpt>
        <trkpt lat="29.655035" lon="104.669649"><ele>743.0015</ele><time>2026-03-27T17:17:38.000Z</time></trkpt>
        <trkpt lat="29.655052" lon="104.669707"><ele>744.5414</ele><time>2026-03-27T17:17:42.000Z</time></trkpt>
        <trkpt lat="29.655082" lon="104.669754"><ele>746.1325</ele><time>2026-03-27T17:17:46.000Z</time></trkpt>
        <trkpt lat="29.655116" lon="104.669798"><ele>747.7563</ele><time>2026-03-27T17:17:50.000Z</time></trkpt>
        <trkpt lat="29.655153" lon="104.669831"><ele>748.9446</ele><time>2026-03-27T17:17:54.000Z</time></trkpt>
        <trkpt lat="29.655204" lon="104.669855"><ele>749.1177</ele><time>2026-03-27T17:17:59.000Z</time></trkpt>
        <trkpt lat="29.655258" lon="104.669871"><ele>748.90826</ele><time>2026-03-27T17:18:04.000Z</time></trkpt>
        <trkpt lat="29.655303" lon="104.669879"><ele>748.28033</ele><time>2026-03-27T17:18:08.000Z</time></trkpt>
        <trkpt lat="29.65536" lon="104.669873"><ele>747.5648</ele><time>2026-03-27T17:18:12.000Z</time></trkpt>
        <trkpt lat="29.655411" lon="104.669861"><ele>746.4593</ele><time>2026-03-27T17:18:16.000Z</time></trkpt>
        <trkpt lat="29.655471" lon="104.669839"><ele>745.31274</ele><time>2026-03-27T17:18:26.000Z</time></trkpt>
        <trkpt lat="29.655507" lon="104.669823"><ele>744.5313</ele><time>2026-03-27T17:18:31.000Z</time></trkpt>
        <trkpt lat="29.655551" lon="104.669794"><ele>744.462</ele><time>2026-03-27T17:18:35.000Z</time></trkpt>
        <trkpt lat="29.655585" lon="104.669761"><ele>744.9331</ele><time>2026-03-27T17:18:38.000Z</time></trkpt>
        <trkpt lat="29.655631" lon="104.669724"><ele>744.5903</ele><time>2026-03-27T17:18:42.000Z</time></trkpt>
        <trkpt lat="29.655682" lon="104.669688"><ele>744.7313</ele><time>2026-03-27T17:18:46.000Z</time></trkpt>
        <trkpt lat="29.655732" lon="104.669658"><ele>744.1885</ele><time>2026-03-27T17:18:51.000Z</time></trkpt>
        <trkpt lat="29.655783" lon="104.669632"><ele>743.56085</ele><time>2026-03-27T17:18:55.000Z</time></trkpt>
        <trkpt lat="29.65584" lon="104.669622"><ele>742.387</ele><time>2026-03-27T17:18:59.000Z</time></trkpt>
        <trkpt lat="29.655901" lon="104.669627"><ele>741.2723</ele><time>2026-03-27T17:19:03.000Z</time></trkpt>
        <trkpt lat="29.65596" lon="104.669642"><ele>740.4968</ele><time>2026-03-27T17:19:07.000Z</time></trkpt>
        <trkpt lat="29.656004" lon="104.669661"><ele>740.0949</ele><time>2026-03-27T17:19:10.000Z</time></trkpt>
        <trkpt lat="29.656057" lon="104.669689"><ele>740.2265</ele><time>2026-03-27T17:19:14.000Z</time></trkpt>
        <trkpt lat="29.656102" lon="104.669721"><ele>739.4</ele><time>2026-03-27T17:19:19.000Z</time></trkpt>
        <trkpt lat="29.656142" lon="104.669767"><ele>737.796</ele><time>2026-03-27T17:19:25.000Z</time></trkpt>
        <trkpt lat="29.656184" lon="104.669788"><ele>736.5838</ele><time>2026-03-27T17:19:29.000Z</time></trkpt>
        <trkpt lat="29.656222" lon="104.66981"><ele>735.8892</ele><time>2026-03-27T17:19:32.000Z</time></trkpt>
        <trkpt lat="29.65627" lon="104.669832"><ele>734.7635</ele><time>2026-03-27T17:19:36.000Z</time></trkpt>
        <trkpt lat="29.656328" lon="104.669846"><ele>733.6175</ele><time>2026-03-27T17:19:40.000Z</time></trkpt>
        <trkpt lat="29.656375" lon="104.66986"><ele>732.9971</ele><time>2026-03-27T17:19:44.000Z</time></trkpt>
        <trkpt lat="29.656425" lon="104.669861"><ele>732.48083</ele><time>2026-03-27T17:19:48.000Z</time></trkpt>
        <trkpt lat="29.656468" lon="104.669842"><ele>731.7916</ele><time>2026-03-27T17:19:52.000Z</time></trkpt>
        <trkpt lat="29.656514" lon="104.669804"><ele>730.96783</ele><time>2026-03-27T17:19:57.000Z</time></trkpt>
        <trkpt lat="29.656553" lon="104.669768"><ele>729.90533</ele><time>2026-03-27T17:20:01.000Z</time></trkpt>
        <trkpt lat="29.656585" lon="104.66972"><ele>729.273</ele><time>2026-03-27T17:20:05.000Z</time></trkpt>
        <trkpt lat="29.656616" lon="104.669665"><ele>729.0114</ele><time>2026-03-27T17:20:10.000Z</time></trkpt>
        <trkpt lat="29.65664" lon="104.669617"><ele>728.62683</ele><time>2026-03-27T17:20:14.000Z</time></trkpt>
        <trkpt lat="29.656662" lon="104.669563"><ele>728.35925</ele><time>2026-03-27T17:20:18.000Z</time></trkpt>
        <trkpt lat="29.656688" lon="104.669509"><ele>727.91693</ele><time>2026-03-27T17:20:22.000Z</time></trkpt>
        <trkpt lat="29.656723" lon="104.669462"><ele>727.8944</ele><time>2026-03-27T17:20:26.000Z</time></trkpt>
        <trkpt lat="29.656764" lon="104.669419"><ele>728.34204</ele><time>2026-03-27T17:20:30.000Z</time></trkpt>
        <trkpt lat="29.656807" lon="104.669406"><ele>729.0965</ele><time>2026-03-27T17:20:33.000Z</time></trkpt>
        <trkpt lat="29.656849" lon="104.669427"><ele>729.23596</ele><time>2026-03-27T17:20:36.000Z</time></trkpt>
        <trkpt lat="29.656898" lon="104.669503"><ele>729.49963</ele><time>2026-03-27T17:20:44.000Z</time></trkpt>
        <trkpt lat="29.656921" lon="104.66955"><ele>729.0921</ele><time>2026-03-27T17:20:47.000Z</time></trkpt>
        <trkpt lat="29.656955" lon="104.669609"><ele>728.359</ele><time>2026-03-27T17:20:51.000Z</time></trkpt>
        <trkpt lat="29.656984" lon="104.669655"><ele>727.8852</ele><time>2026-03-27T17:20:54.000Z</time></trkpt>
        <trkpt lat="29.65702" lon="104.66971"><ele>727.2608</ele><time>2026-03-27T17:20:59.000Z</time></trkpt>
        <trkpt lat="29.657059" lon="104.66976"><ele>726.5341</ele><time>2026-03-27T17:21:03.000Z</time></trkpt>
        <trkpt lat="29.6571" lon="104.669807"><ele>725.8373</ele><time>2026-03-27T17:21:07.000Z</time></trkpt>
        <trkpt lat="29.657137" lon="104.669849"><ele>724.9615</ele><time>2026-03-27T17:21:11.000Z</time></trkpt>
        <trkpt lat="29.657169" lon="104.669888"><ele>724.1041</ele><time>2026-03-27T17:21:15.000Z</time></trkpt>
        <trkpt lat="29.6572" lon="104.669928"><ele>723.4024</ele><time>2026-03-27T17:21:19.000Z</time></trkpt>
        <trkpt lat="29.657227" lon="104.669975"><ele>722.2589</ele><time>2026-03-27T17:21:23.000Z</time></trkpt>
        <trkpt lat="29.657253" lon="104.670027"><ele>720.7177</ele><time>2026-03-27T17:21:27.000Z</time></trkpt>
        <trkpt lat="29.657274" lon="104.670072"><ele>719.72614</ele><time>2026-03-27T17:21:30.000Z</time></trkpt>
        <trkpt lat="29.657295" lon="104.67012"><ele>719.0859</ele><time>2026-03-27T17:21:33.000Z</time></trkpt>
        <trkpt lat="29.657317" lon="104.670168"><ele>718.5324</ele><time>2026-03-27T17:21:36.000Z</time></trkpt>
        <trkpt lat="29.657355" lon="104.670216"><ele>718.0892</ele><time>2026-03-27T17:21:40.000Z</time></trkpt>
        <trkpt lat="29.657402" lon="104.670251"><ele>717.5844</ele><time>2026-03-27T17:21:43.000Z</time></trkpt>
        <trkpt lat="29.657458" lon="104.670263"><ele>717.69556</ele><time>2026-03-27T17:21:47.000Z</time></trkpt>
        <trkpt lat="29.657514" lon="104.670249"><ele>717.8686</ele><time>2026-03-27T17:21:51.000Z</time></trkpt>
        <trkpt lat="29.657566" lon="104.670223"><ele>718.723</ele><time>2026-03-27T17:21:55.000Z</time></trkpt>
        <trkpt lat="29.657616" lon="104.670196"><ele>718.2612</ele><time>2026-03-27T17:21:59.000Z</time></trkpt>
        <trkpt lat="29.65767" lon="104.670174"><ele>717.8787</ele><time>2026-03-27T17:22:04.000Z</time></trkpt>
        <trkpt lat="29.657719" lon="104.670162"><ele>717.08905</ele><time>2026-03-27T17:22:08.000Z</time></trkpt>
        <trkpt lat="29.657769" lon="104.670156"><ele>716.3014</ele><time>2026-03-27T17:22:12.000Z</time></trkpt>
        <trkpt lat="29.65782" lon="104.670148"><ele>716.23865</ele><time>2026-03-27T17:22:16.000Z</time></trkpt>
        <trkpt lat="29.657875" lon="104.670146"><ele>716.52264</ele><time>2026-03-27T17:22:20.000Z</time></trkpt>
        <trkpt lat="29.657929" lon="104.670165"><ele>717.0032</ele><time>2026-03-27T17:22:24.000Z</time></trkpt>
        <trkpt lat="29.657982" lon="104.670196"><ele>717.3016</ele><time>2026-03-27T17:22:28.000Z</time></trkpt>
        <trkpt lat="29.658027" lon="104.670239"><ele>717.91156</ele><time>2026-03-27T17:22:32.000Z</time></trkpt>
        <trkpt lat="29.65807" lon="104.670214"><ele>719.6537</ele><time>2026-03-27T17:22:52.000Z</time></trkpt>
        <trkpt lat="29.658071" lon="104.670163"><ele>720.31744</ele><time>2026-03-27T17:22:57.000Z</time></trkpt>
        <trkpt lat="29.65808" lon="104.670108"><ele>721.5465</ele><time>2026-03-27T17:23:04.000Z</time></trkpt>
        <trkpt lat="29.658092" lon="104.67005"><ele>722.3411</ele><time>2026-03-27T17:23:11.000Z</time></trkpt>
        <trkpt lat="29.658105" lon="104.669998"><ele>722.7364</ele><time>2026-03-27T17:23:16.000Z</time></trkpt>
        <trkpt lat="29.658109" lon="104.669936"><ele>723.4562</ele><time>2026-03-27T17:23:21.000Z</time></trkpt>
        <trkpt lat="29.658111" lon="104.669877"><ele>724.90515</ele><time>2026-03-27T17:23:27.000Z</time></trkpt>
        <trkpt lat="29.658111" lon="104.66982"><ele>725.97644</ele><time>2026-03-27T17:23:32.000Z</time></trkpt>
        <trkpt lat="29.658118" lon="104.669758"><ele>727.01404</ele><time>2026-03-27T17:23:37.000Z</time></trkpt>
        <trkpt lat="29.658134" lon="104.669701"><ele>729.1705</ele><time>2026-03-27T17:23:44.000Z</time></trkpt>
        <trkpt lat="29.658165" lon="104.669651"><ele>732.2991</ele><time>2026-03-27T17:23:50.000Z</time></trkpt>
        <trkpt lat="29.658179" lon="104.669608"><ele>733.8841</ele><time>2026-03-27T17:23:54.000Z</time></trkpt>
        <trkpt lat="29.658178" lon="104.669552"><ele>735.21606</ele><time>2026-03-27T17:23:59.000Z</time></trkpt>
        <trkpt lat="29.658179" lon="104.669489"><ele>736.4336</ele><time>2026-03-27T17:24:04.000Z</time></trkpt>
        <trkpt lat="29.658187" lon="104.669432"><ele>737.85724</ele><time>2026-03-27T17:24:09.000Z</time></trkpt>
        <trkpt lat="29.658184" lon="104.669371"><ele>739.89386</ele><time>2026-03-27T17:24:14.000Z</time></trkpt>
        <trkpt lat="29.658192" lon="104.669317"><ele>742.48303</ele><time>2026-03-27T17:24:19.000Z</time></trkpt>
        <trkpt lat="29.658193" lon="104.669264"><ele>745.3593</ele><time>2026-03-27T17:24:24.000Z</time></trkpt>
        <trkpt lat="29.658178" lon="104.669219"><ele>747.1042</ele><time>2026-03-27T17:24:28.000Z</time></trkpt>
        <trkpt lat="29.65815" lon="104.669173"><ele>748.3747</ele><time>2026-03-27T17:24:33.000Z</time></trkpt>
        <trkpt lat="29.658142" lon="104.669115"><ele>749.9938</ele><time>2026-03-27T17:24:41.000Z</time></trkpt>
        <trkpt lat="29.658171" lon="104.669071"><ele>752.1111</ele><time>2026-03-27T17:24:51.000Z</time></trkpt>
        <trkpt lat="29.658181" lon="104.66902"><ele>753.6029</ele><time>2026-03-27T17:24:58.000Z</time></trkpt>
        <trkpt lat="29.658182" lon="104.668962"><ele>755.16797</ele><time>2026-03-27T17:25:08.000Z</time></trkpt>
        <trkpt lat="29.658197" lon="104.668915"><ele>755.3083</ele><time>2026-03-27T17:25:14.000Z</time></trkpt>
        <trkpt lat="29.658237" lon="104.668879"><ele>757.053</ele><time>2026-03-27T17:25:23.000Z</time></trkpt>
        <trkpt lat="29.658241" lon="104.668837"><ele>757.2826</ele><time>2026-03-27T17:25:28.000Z</time></trkpt>
        <trkpt lat="29.658247" lon="104.668773"><ele>756.92975</ele><time>2026-03-27T17:25:37.000Z</time></trkpt>
        <trkpt lat="29.658258" lon="104.66872"><ele>756.2123</ele><time>2026-03-27T17:25:42.000Z</time></trkpt>
        <trkpt lat="29.658281" lon="104.668658"><ele>755.70905</ele><time>2026-03-27T17:25:48.000Z</time></trkpt>
        <trkpt lat="29.658317" lon="104.668605"><ele>754.5342</ele><time>2026-03-27T17:25:53.000Z</time></trkpt>
        <trkpt lat="29.658321" lon="104.668552"><ele>754.45776</ele><time>2026-03-27T17:25:59.000Z</time></trkpt>
        <trkpt lat="29.658321" lon="104.668498"><ele>755.0224</ele><time>2026-03-27T17:26:04.000Z</time></trkpt>
        <trkpt lat="29.658359" lon="104.668468"><ele>756.1334</ele><time>2026-03-27T17:26:10.000Z</time></trkpt>
        <trkpt lat="29.658387" lon="104.668426"><ele>757.2982</ele><time>2026-03-27T17:26:16.000Z</time></trkpt>
        <trkpt lat="29.658425" lon="104.6684"><ele>758.1451</ele><time>2026-03-27T17:26:22.000Z</time></trkpt>
        <trkpt lat="29.658468" lon="104.66838"><ele>759.11163</ele><time>2026-03-27T17:26:28.000Z</time></trkpt>
        <trkpt lat="29.658486" lon="104.668338"><ele>759.5729</ele><time>2026-03-27T17:26:33.000Z</time></trkpt>
        <trkpt lat="29.658511" lon="104.668293"><ele>759.73773</ele><time>2026-03-27T17:26:38.000Z</time></trkpt>
        <trkpt lat="29.658542" lon="104.668241"><ele>760.01807</ele><time>2026-03-27T17:26:49.000Z</time></trkpt>
        <trkpt lat="29.658567" lon="104.668202"><ele>760.2556</ele><time>2026-03-27T17:26:55.000Z</time></trkpt>
        <trkpt lat="29.658599" lon="104.668165"><ele>759.92175</ele><time>2026-03-27T17:27:00.000Z</time></trkpt>
        <trkpt lat="29.658621" lon="104.668118"><ele>759.66766</ele><time>2026-03-27T17:27:05.000Z</time></trkpt>
        <trkpt lat="29.658636" lon="104.66806"><ele>759.25885</ele><time>2026-03-27T17:27:14.000Z</time></trkpt>
        <trkpt lat="29.658658" lon="104.668011"><ele>759.4887</ele><time>2026-03-27T17:27:19.000Z</time></trkpt>
        <trkpt lat="29.658691" lon="104.667947"><ele>758.899</ele><time>2026-03-27T17:27:26.000Z</time></trkpt>
        <trkpt lat="29.658712" lon="104.667901"><ele>758.7781</ele><time>2026-03-27T17:27:30.000Z</time></trkpt>
        <trkpt lat="29.658733" lon="104.66785"><ele>757.43146</ele><time>2026-03-27T17:27:35.000Z</time></trkpt>
        <trkpt lat="29.658753" lon="104.667794"><ele>756.1477</ele><time>2026-03-27T17:27:40.000Z</time></trkpt>
        <trkpt lat="29.658783" lon="104.667744"><ele>754.673</ele><time>2026-03-27T17:27:58.000Z</time></trkpt>
        <trkpt lat="29.658814" lon="104.667717"><ele>753.38074</ele><time>2026-03-27T17:28:03.000Z</time></trkpt>
        <trkpt lat="29.658834" lon="104.667668"><ele>753.4034</ele><time>2026-03-27T17:28:08.000Z</time></trkpt>
        <trkpt lat="29.658853" lon="104.667615"><ele>753.39154</ele><time>2026-03-27T17:28:13.000Z</time></trkpt>
        <trkpt lat="29.65887" lon="104.667562"><ele>753.1172</ele><time>2026-03-27T17:28:18.000Z</time></trkpt>
        <trkpt lat="29.658877" lon="104.667512"><ele>753.1138</ele><time>2026-03-27T17:28:22.000Z</time></trkpt>
        <trkpt lat="29.658875" lon="104.66745"><ele>753.1199</ele><time>2026-03-27T17:28:29.000Z</time></trkpt>
        <trkpt lat="29.658854" lon="104.667394"><ele>753.0135</ele><time>2026-03-27T17:28:37.000Z</time></trkpt>
        <trkpt lat="29.658814" lon="104.667357"><ele>752.1383</ele><time>2026-03-27T17:28:46.000Z</time></trkpt>
        <trkpt lat="29.658786" lon="104.667318"><ele>751.43365</ele><time>2026-03-27T17:28:52.000Z</time></trkpt>
        <trkpt lat="29.658767" lon="104.667265"><ele>751.13336</ele><time>2026-03-27T17:28:56.000Z</time></trkpt>
        <trkpt lat="29.658751" lon="104.667199"><ele>751.459</ele><time>2026-03-27T17:29:01.000Z</time></trkpt>
        <trkpt lat="29.65875" lon="104.667137"><ele>752.0523</ele><time>2026-03-27T17:29:05.000Z</time></trkpt>
        <trkpt lat="29.658775" lon="104.667065"><ele>751.72534</ele><time>2026-03-27T17:29:14.000Z</time></trkpt>
        <trkpt lat="29.658809" lon="104.667026"><ele>751.72327</ele><time>2026-03-27T17:29:18.000Z</time></trkpt>
        <trkpt lat="29.658842" lon="104.666978"><ele>751.3795</ele><time>2026-03-27T17:29:23.000Z</time></trkpt>
        <trkpt lat="29.658862" lon="104.66692"><ele>751.44855</ele><time>2026-03-27T17:29:27.000Z</time></trkpt>
        <trkpt lat="29.658871" lon="104.666858"><ele>751.8606</ele><time>2026-03-27T17:29:31.000Z</time></trkpt>
        <trkpt lat="29.658877" lon="104.666788"><ele>752.97095</ele><time>2026-03-27T17:29:37.000Z</time></trkpt>
        <trkpt lat="29.658865" lon="104.666731"><ele>751.4305</ele><time>2026-03-27T17:29:45.000Z</time></trkpt>
        <trkpt lat="29.658867" lon="104.666688"><ele>751.613</ele><time>2026-03-27T17:29:48.000Z</time></trkpt>
        <trkpt lat="29.658904" lon="104.66666"><ele>751.3951</ele><time>2026-03-27T17:29:51.000Z</time></trkpt>
        <trkpt lat="29.658925" lon="104.66661"><ele>750.7217</ele><time>2026-03-27T17:29:55.000Z</time></trkpt>
        <trkpt lat="29.658943" lon="104.666553"><ele>750.83655</ele><time>2026-03-27T17:30:00.000Z</time></trkpt>
        <trkpt lat="29.658959" lon="104.666494"><ele>750.9254</ele><time>2026-03-27T17:30:05.000Z</time></trkpt>
        <trkpt lat="29.658978" lon="104.666439"><ele>750.2455</ele><time>2026-03-27T17:30:10.000Z</time></trkpt>
        <trkpt lat="29.658994" lon="104.66638"><ele>749.5947</ele><time>2026-03-27T17:30:15.000Z</time></trkpt>
        <trkpt lat="29.659006" lon="104.666322"><ele>749.19684</ele><time>2026-03-27T17:30:20.000Z</time></trkpt>
        <trkpt lat="29.659024" lon="104.666269"><ele>749.1868</ele><time>2026-03-27T17:30:24.000Z</time></trkpt>
        <trkpt lat="29.659041" lon="104.666208"><ele>749.15845</ele><time>2026-03-27T17:30:28.000Z</time></trkpt>
        <trkpt lat="29.659065" lon="104.666144"><ele>748.85364</ele><time>2026-03-27T17:30:33.000Z</time></trkpt>
        <trkpt lat="29.659099" lon="104.666093"><ele>748.1678</ele><time>2026-03-27T17:30:38.000Z</time></trkpt>
        <trkpt lat="29.659139" lon="104.666062"><ele>747.2013</ele><time>2026-03-27T17:30:42.000Z</time></trkpt>
        <trkpt lat="29.659184" lon="104.666021"><ele>746.38245</ele><time>2026-03-27T17:30:46.000Z</time></trkpt>
        <trkpt lat="29.659225" lon="104.665993"><ele>745.8233</ele><time>2026-03-27T17:30:49.000Z</time></trkpt>
        <trkpt lat="29.659289" lon="104.665982"><ele>746.092</ele><time>2026-03-27T17:31:00.000Z</time></trkpt>
        <trkpt lat="29.659332" lon="104.665984"><ele>746.4222</ele><time>2026-03-27T17:31:05.000Z</time></trkpt>
        <trkpt lat="29.659375" lon="104.665974"><ele>747.0847</ele><time>2026-03-27T17:31:09.000Z</time></trkpt>
        <trkpt lat="29.659424" lon="104.665969"><ele>747.7653</ele><time>2026-03-27T17:31:13.000Z</time></trkpt>
        <trkpt lat="29.659469" lon="104.665969"><ele>747.8532</ele><time>2026-03-27T17:31:16.000Z</time></trkpt>
        <trkpt lat="29.659522" lon="104.665962"><ele>748.1459</ele><time>2026-03-27T17:31:20.000Z</time></trkpt>
        <trkpt lat="29.659576" lon="104.665944"><ele>748.5514</ele><time>2026-03-27T17:31:26.000Z</time></trkpt>
        <trkpt lat="29.659621" lon="104.66592"><ele>748.8514</ele><time>2026-03-27T17:31:30.000Z</time></trkpt>
        <trkpt lat="29.659662" lon="104.665884"><ele>749.0877</ele><time>2026-03-27T17:31:34.000Z</time></trkpt>
        <trkpt lat="29.659698" lon="104.665839"><ele>749.2545</ele><time>2026-03-27T17:31:38.000Z</time></trkpt>
        <trkpt lat="29.65973" lon="104.665785"><ele>749.8657</ele><time>2026-03-27T17:31:42.000Z</time></trkpt>
        <trkpt lat="29.659763" lon="104.665742"><ele>750.7739</ele><time>2026-03-27T17:31:46.000Z</time></trkpt>
        <trkpt lat="29.659793" lon="104.665698"><ele>752.30206</ele><time>2026-03-27T17:31:50.000Z</time></trkpt>
        <trkpt lat="29.659829" lon="104.665655"><ele>752.92725</ele><time>2026-03-27T17:31:54.000Z</time></trkpt>
        <trkpt lat="29.659862" lon="104.665607"><ele>753.61005</ele><time>2026-03-27T17:31:58.000Z</time></trkpt>
        <trkpt lat="29.659892" lon="104.665553"><ele>754.1944</ele><time>2026-03-27T17:32:02.000Z</time></trkpt>
        <trkpt lat="29.65992" lon="104.665501"><ele>754.30536</ele><time>2026-03-27T17:32:06.000Z</time></trkpt>
        <trkpt lat="29.659949" lon="104.665449"><ele>754.1204</ele><time>2026-03-27T17:32:10.000Z</time></trkpt>
        <trkpt lat="29.659977" lon="104.665394"><ele>753.7889</ele><time>2026-03-27T17:32:23.000Z</time></trkpt>
        <trkpt lat="29.659998" lon="104.665364"><ele>753.41266</ele><time>2026-03-27T17:32:27.000Z</time></trkpt>
        <trkpt lat="29.660018" lon="104.665311"><ele>752.67786</ele><time>2026-03-27T17:32:31.000Z</time></trkpt>
        <trkpt lat="29.660035" lon="104.665247"><ele>752.2584</ele><time>2026-03-27T17:32:35.000Z</time></trkpt>
        <trkpt lat="29.660051" lon="104.665179"><ele>752.1288</ele><time>2026-03-27T17:32:39.000Z</time></trkpt>
        <trkpt lat="29.66006" lon="104.665115"><ele>752.127</ele><time>2026-03-27T17:32:43.000Z</time></trkpt>
        <trkpt lat="29.660063" lon="104.665056"><ele>752.2221</ele><time>2026-03-27T17:32:47.000Z</time></trkpt>
        <trkpt lat="29.660061" lon="104.665"><ele>752.5541</ele><time>2026-03-27T17:32:51.000Z</time></trkpt>
        <trkpt lat="29.66005" lon="104.664938"><ele>753.12573</ele><time>2026-03-27T17:32:55.000Z</time></trkpt>
        <trkpt lat="29.660039" lon="104.664884"><ele>752.8481</ele><time>2026-03-27T17:32:58.000Z</time></trkpt>
        <trkpt lat="29.660035" lon="104.66482"><ele>751.2967</ele><time>2026-03-27T17:33:02.000Z</time></trkpt>
        <trkpt lat="29.660013" lon="104.664757"><ele>750.1299</ele><time>2026-03-27T17:33:08.000Z</time></trkpt>
        <trkpt lat="29.660009" lon="104.664707"><ele>749.03253</ele><time>2026-03-27T17:33:12.000Z</time></trkpt>
        <trkpt lat="29.660006" lon="104.664648"><ele>748.17236</ele><time>2026-03-27T17:33:16.000Z</time></trkpt>
        <trkpt lat="29.65999" lon="104.664586"><ele>748.1293</ele><time>2026-03-27T17:33:20.000Z</time></trkpt>
        <trkpt lat="29.659975" lon="104.664537"><ele>747.8453</ele><time>2026-03-27T17:33:23.000Z</time></trkpt>
        <trkpt lat="29.659953" lon="104.664475"><ele>747.3214</ele><time>2026-03-27T17:33:27.000Z</time></trkpt>
        <trkpt lat="29.659924" lon="104.664413"><ele>746.85175</ele><time>2026-03-27T17:33:32.000Z</time></trkpt>
        <trkpt lat="29.659905" lon="104.664366"><ele>746.58563</ele><time>2026-03-27T17:33:35.000Z</time></trkpt>
        <trkpt lat="29.659888" lon="104.664315"><ele>746.5696</ele><time>2026-03-27T17:33:38.000Z</time></trkpt>
        <trkpt lat="29.659868" lon="104.664267"><ele>746.2745</ele><time>2026-03-27T17:33:41.000Z</time></trkpt>
        <trkpt lat="29.659848" lon="104.664204"><ele>746.1359</ele><time>2026-03-27T17:33:45.000Z</time></trkpt>
        <trkpt lat="29.659825" lon="104.664151"><ele>745.83325</ele><time>2026-03-27T17:33:49.000Z</time></trkpt>
        <trkpt lat="29.659805" lon="104.664097"><ele>745.30145</ele><time>2026-03-27T17:33:53.000Z</time></trkpt>
        <trkpt lat="29.659781" lon="104.664045"><ele>744.47797</ele><time>2026-03-27T17:33:57.000Z</time></trkpt>
        <trkpt lat="29.659763" lon="104.663992"><ele>743.9406</ele><time>2026-03-27T17:34:01.000Z</time></trkpt>
        <trkpt lat="29.659754" lon="104.663938"><ele>743.88654</ele><time>2026-03-27T17:34:05.000Z</time></trkpt>
        <trkpt lat="29.659753" lon="104.66389"><ele>743.94604</ele><time>2026-03-27T17:34:08.000Z</time></trkpt>
        <trkpt lat="29.659758" lon="104.663826"><ele>743.8316</ele><time>2026-03-27T17:34:12.000Z</time></trkpt>
        <trkpt lat="29.659779" lon="104.663775"><ele>743.7397</ele><time>2026-03-27T17:34:15.000Z</time></trkpt>
        <trkpt lat="29.659814" lon="104.663723"><ele>744.3407</ele><time>2026-03-27T17:34:18.000Z</time></trkpt>
        <trkpt lat="29.659798" lon="104.663732"><ele>743.7098</ele><time>2026-03-27T17:34:25.000Z</time></trkpt>
        <trkpt lat="29.659823" lon="104.663717"><ele>743.7936</ele><time>2026-03-27T17:34:31.000Z</time></trkpt>
        <trkpt lat="29.65987" lon="104.663697"><ele>744.39716</ele><time>2026-03-27T17:34:35.000Z</time></trkpt>
        <trkpt lat="29.659928" lon="104.663674"><ele>745.5295</ele><time>2026-03-27T17:34:39.000Z</time></trkpt>
        <trkpt lat="29.659979" lon="104.663649"><ele>746.84015</ele><time>2026-03-27T17:34:43.000Z</time></trkpt>
        <trkpt lat="29.660035" lon="104.663625"><ele>747.7953</ele><time>2026-03-27T17:34:47.000Z</time></trkpt>
        <trkpt lat="29.660088" lon="104.663602"><ele>748.481</ele><time>2026-03-27T17:34:51.000Z</time></trkpt>
        <trkpt lat="29.660142" lon="104.663589"><ele>749.61426</ele><time>2026-03-27T17:34:55.000Z</time></trkpt>
        <trkpt lat="29.660191" lon="104.663567"><ele>750.53534</ele><time>2026-03-27T17:34:59.000Z</time></trkpt>
        <trkpt lat="29.660243" lon="104.663545"><ele>751.65704</ele><time>2026-03-27T17:35:03.000Z</time></trkpt>
        <trkpt lat="29.660293" lon="104.663522"><ele>752.8405</ele><time>2026-03-27T17:35:07.000Z</time></trkpt>
        <trkpt lat="29.660339" lon="104.663493"><ele>753.46173</ele><time>2026-03-27T17:35:11.000Z</time></trkpt>
        <trkpt lat="29.660386" lon="104.663469"><ele>753.8391</ele><time>2026-03-27T17:35:15.000Z</time></trkpt>
        <trkpt lat="29.660437" lon="104.663451"><ele>754.1065</ele><time>2026-03-27T17:35:19.000Z</time></trkpt>
        <trkpt lat="29.66048" lon="104.663425"><ele>754.67993</ele><time>2026-03-27T17:35:23.000Z</time></trkpt>
        <trkpt lat="29.660529" lon="104.6634"><ele>755.2267</ele><time>2026-03-27T17:35:27.000Z</time></trkpt>
        <trkpt lat="29.66058" lon="104.663385"><ele>755.73804</ele><time>2026-03-27T17:35:31.000Z</time></trkpt>
        <trkpt lat="29.660629" lon="104.663393"><ele>755.9448</ele><time>2026-03-27T17:35:34.000Z</time></trkpt>
        <trkpt lat="29.660687" lon="104.663415"><ele>756.6119</ele><time>2026-03-27T17:35:39.000Z</time></trkpt>
        <trkpt lat="29.660742" lon="104.663446"><ele>758.1379</ele><time>2026-03-27T17:35:44.000Z</time></trkpt>
        <trkpt lat="29.660795" lon="104.663464"><ele>759.4235</ele><time>2026-03-27T17:35:49.000Z</time></trkpt>
        <trkpt lat="29.660843" lon="104.663469"><ele>759.96344</ele><time>2026-03-27T17:35:53.000Z</time></trkpt>
        <trkpt lat="29.660889" lon="104.663479"><ele>760.4027</ele><time>2026-03-27T17:35:57.000Z</time></trkpt>
        <trkpt lat="29.660936" lon="104.663489"><ele>760.61316</ele><time>2026-03-27T17:36:01.000Z</time></trkpt>
        <trkpt lat="29.660985" lon="104.663501"><ele>760.641</ele><time>2026-03-27T17:36:05.000Z</time></trkpt>
        <trkpt lat="29.661039" lon="104.663516"><ele>760.87714</ele><time>2026-03-27T17:36:10.000Z</time></trkpt>
        <trkpt lat="29.661085" lon="104.66353"><ele>760.71136</ele><time>2026-03-27T17:36:14.000Z</time></trkpt>
        <trkpt lat="29.661125" lon="104.66354"><ele>760.955</ele><time>2026-03-27T17:36:17.000Z</time></trkpt>
        <trkpt lat="29.661169" lon="104.663548"><ele>760.0684</ele><time>2026-03-27T17:36:20.000Z</time></trkpt>
        <trkpt lat="29.661238" lon="104.663561"><ele>758.46674</ele><time>2026-03-27T17:36:29.000Z</time></trkpt>
        <trkpt lat="29.661274" lon="104.663539"><ele>758.28644</ele><time>2026-03-27T17:36:33.000Z</time></trkpt>
        <trkpt lat="29.661313" lon="104.663509"><ele>758.76324</ele><time>2026-03-27T17:36:37.000Z</time></trkpt>
        <trkpt lat="29.661352" lon="104.663466"><ele>759.5229</ele><time>2026-03-27T17:36:41.000Z</time></trkpt>
        <trkpt lat="29.661388" lon="104.663409"><ele>760.4371</ele><time>2026-03-27T17:36:46.000Z</time></trkpt>
        <trkpt lat="29.661413" lon="104.663357"><ele>760.8777</ele><time>2026-03-27T17:36:50.000Z</time></trkpt>
        <trkpt lat="29.661442" lon="104.663308"><ele>761.7584</ele><time>2026-03-27T17:36:54.000Z</time></trkpt>
        <trkpt lat="29.661473" lon="104.663264"><ele>762.8181</ele><time>2026-03-27T17:36:58.000Z</time></trkpt>
        <trkpt lat="29.661503" lon="104.663219"><ele>763.7256</ele><time>2026-03-27T17:37:02.000Z</time></trkpt>
        <trkpt lat="29.661527" lon="104.663173"><ele>764.5705</ele><time>2026-03-27T17:37:06.000Z</time></trkpt>
        <trkpt lat="29.66155" lon="104.663126"><ele>765.2383</ele><time>2026-03-27T17:37:10.000Z</time></trkpt>
        <trkpt lat="29.661576" lon="104.663082"><ele>765.45026</ele><time>2026-03-27T17:37:14.000Z</time></trkpt>
        <trkpt lat="29.661605" lon="104.66304"><ele>765.08685</ele><time>2026-03-27T17:37:18.000Z</time></trkpt>
        <trkpt lat="29.661638" lon="104.662993"><ele>764.29535</ele><time>2026-03-27T17:37:23.000Z</time></trkpt>
        <trkpt lat="29.661665" lon="104.66295"><ele>763.33014</ele><time>2026-03-27T17:37:27.000Z</time></trkpt>
        <trkpt lat="29.661695" lon="104.662905"><ele>762.7498</ele><time>2026-03-27T17:37:31.000Z</time></trkpt>
        <trkpt lat="29.661719" lon="104.662856"><ele>762.60583</ele><time>2026-03-27T17:37:35.000Z</time></trkpt>
        <trkpt lat="29.661748" lon="104.662808"><ele>762.5996</ele><time>2026-03-27T17:37:39.000Z</time></trkpt>
        <trkpt lat="29.661779" lon="104.662762"><ele>762.42633</ele><time>2026-03-27T17:37:44.000Z</time></trkpt>
        <trkpt lat="29.661801" lon="104.662711"><ele>762.46655</ele><time>2026-03-27T17:37:48.000Z</time></trkpt>
        <trkpt lat="29.661829" lon="104.662661"><ele>762.055</ele><time>2026-03-27T17:37:52.000Z</time></trkpt>
        <trkpt lat="29.661868" lon="104.662616"><ele>761.7791</ele><time>2026-03-27T17:37:56.000Z</time></trkpt>
        <trkpt lat="29.661917" lon="104.66258"><ele>761.34106</ele><time>2026-03-27T17:38:00.000Z</time></trkpt>
        <trkpt lat="29.66196" lon="104.66256"><ele>760.8291</ele><time>2026-03-27T17:38:03.000Z</time></trkpt>
        <trkpt lat="29.662015" lon="104.662536"><ele>760.426</ele><time>2026-03-27T17:38:07.000Z</time></trkpt>
        <trkpt lat="29.662066" lon="104.662516"><ele>760.30786</ele><time>2026-03-27T17:38:11.000Z</time></trkpt>
        <trkpt lat="29.662111" lon="104.662494"><ele>759.83734</ele><time>2026-03-27T17:38:15.000Z</time></trkpt>
        <trkpt lat="29.662159" lon="104.662471"><ele>760.02246</ele><time>2026-03-27T17:38:19.000Z</time></trkpt>
        <trkpt lat="29.662203" lon="104.662447"><ele>760.49457</ele><time>2026-03-27T17:38:23.000Z</time></trkpt>
        <trkpt lat="29.662251" lon="104.662413"><ele>760.42395</ele><time>2026-03-27T17:38:28.000Z</time></trkpt>
        <trkpt lat="29.662298" lon="104.662388"><ele>760.85834</ele><time>2026-03-27T17:38:31.000Z</time></trkpt>
        <trkpt lat="29.662348" lon="104.662363"><ele>761.41394</ele><time>2026-03-27T17:38:35.000Z</time></trkpt>
        <trkpt lat="29.662397" lon="104.662335"><ele>761.9587</ele><time>2026-03-27T17:38:39.000Z</time></trkpt>
        <trkpt lat="29.662445" lon="104.662305"><ele>762.29266</ele><time>2026-03-27T17:38:43.000Z</time></trkpt>
        <trkpt lat="29.662488" lon="104.662273"><ele>762.3578</ele><time>2026-03-27T17:38:47.000Z</time></trkpt>
        <trkpt lat="29.66253" lon="104.662241"><ele>762.5416</ele><time>2026-03-27T17:38:51.000Z</time></trkpt>
        <trkpt lat="29.662575" lon="104.66221"><ele>762.25964</ele><time>2026-03-27T17:38:55.000Z</time></trkpt>
        <trkpt lat="29.66262" lon="104.662179"><ele>761.7612</ele><time>2026-03-27T17:38:59.000Z</time></trkpt>
        <trkpt lat="29.662659" lon="104.66214"><ele>761.0865</ele><time>2026-03-27T17:39:03.000Z</time></trkpt>
        <trkpt lat="29.662706" lon="104.662099"><ele>759.9999</ele><time>2026-03-27T17:39:12.000Z</time></trkpt>
        <trkpt lat="29.662721" lon="104.662057"><ele>760.10046</ele><time>2026-03-27T17:39:16.000Z</time></trkpt>
        <trkpt lat="29.662741" lon="104.662002"><ele>760.1578</ele><time>2026-03-27T17:39:20.000Z</time></trkpt>
        <trkpt lat="29.662762" lon="104.661944"><ele>760.54694</ele><time>2026-03-27T17:39:24.000Z</time></trkpt>
        <trkpt lat="29.66278" lon="104.661881"><ele>760.80975</ele><time>2026-03-27T17:39:28.000Z</time></trkpt>
        <trkpt lat="29.662796" lon="104.66182"><ele>761.0757</ele><time>2026-03-27T17:39:32.000Z</time></trkpt>
        <trkpt lat="29.66281" lon="104.661766"><ele>761.45874</ele><time>2026-03-27T17:39:36.000Z</time></trkpt>
        <trkpt lat="29.66282" lon="104.66171"><ele>761.7715</ele><time>2026-03-27T17:39:40.000Z</time></trkpt>
        <trkpt lat="29.662816" lon="104.661647"><ele>763.10596</ele><time>2026-03-27T17:39:44.000Z</time></trkpt>
        <trkpt lat="29.662803" lon="104.661583"><ele>763.85785</ele><time>2026-03-27T17:39:48.000Z</time></trkpt>
        <trkpt lat="29.662788" lon="104.661522"><ele>764.5596</ele><time>2026-03-27T17:39:54.000Z</time></trkpt>
        <trkpt lat="29.662762" lon="104.661482"><ele>765.6256</ele><time>2026-03-27T17:39:58.000Z</time></trkpt>
        <trkpt lat="29.662744" lon="104.661441"><ele>765.8001</ele><time>2026-03-27T17:40:01.000Z</time></trkpt>
        <trkpt lat="29.662726" lon="104.661378"><ele>765.9025</ele><time>2026-03-27T17:40:06.000Z</time></trkpt>
        <trkpt lat="29.662708" lon="104.66132"><ele>765.86615</ele><time>2026-03-27T17:40:10.000Z</time></trkpt>
        <trkpt lat="29.662696" lon="104.661262"><ele>766.04425</ele><time>2026-03-27T17:40:14.000Z</time></trkpt>
        <trkpt lat="29.662675" lon="104.66121"><ele>766.4185</ele><time>2026-03-27T17:40:18.000Z</time></trkpt>
        <trkpt lat="29.662653" lon="104.661154"><ele>766.6066</ele><time>2026-03-27T17:40:22.000Z</time></trkpt>
        <trkpt lat="29.662631" lon="104.661102"><ele>765.995</ele><time>2026-03-27T17:40:26.000Z</time></trkpt>
        <trkpt lat="29.662606" lon="104.661054"><ele>765.32056</ele><time>2026-03-27T17:40:30.000Z</time></trkpt>
        <trkpt lat="29.662576" lon="104.66101"><ele>764.9937</ele><time>2026-03-27T17:40:33.000Z</time></trkpt>
        <trkpt lat="29.662544" lon="104.660966"><ele>765.2137</ele><time>2026-03-27T17:40:37.000Z</time></trkpt>
        <trkpt lat="29.662512" lon="104.660915"><ele>764.8319</ele><time>2026-03-27T17:40:41.000Z</time></trkpt>
        <trkpt lat="29.662493" lon="104.660868"><ele>764.13983</ele><time>2026-03-27T17:40:44.000Z</time></trkpt>
        <trkpt lat="29.662469" lon="104.660812"><ele>762.6202</ele><time>2026-03-27T17:40:48.000Z</time></trkpt>
        <trkpt lat="29.662447" lon="104.660745"><ele>760.9121</ele><time>2026-03-27T17:40:55.000Z</time></trkpt>
        <trkpt lat="29.662455" lon="104.6607"><ele>760.54987</ele><time>2026-03-27T17:40:58.000Z</time></trkpt>
        <trkpt lat="29.662465" lon="104.660643"><ele>760.0903</ele><time>2026-03-27T17:41:02.000Z</time></trkpt>
        <trkpt lat="29.662484" lon="104.660594"><ele>759.54736</ele><time>2026-03-27T17:41:05.000Z</time></trkpt>
        <trkpt lat="29.662508" lon="104.660548"><ele>759.30316</ele><time>2026-03-27T17:41:08.000Z</time></trkpt>
        <trkpt lat="29.662536" lon="104.660488"><ele>759.5161</ele><time>2026-03-27T17:41:12.000Z</time></trkpt>
        <trkpt lat="29.662566" lon="104.660432"><ele>760.2158</ele><time>2026-03-27T17:41:16.000Z</time></trkpt>
        <trkpt lat="29.662594" lon="104.660373"><ele>761.2503</ele><time>2026-03-27T17:41:20.000Z</time></trkpt>
        <trkpt lat="29.662623" lon="104.660334"><ele>761.9077</ele><time>2026-03-27T17:41:23.000Z</time></trkpt>
        <trkpt lat="29.662677" lon="104.660319"><ele>762.7566</ele><time>2026-03-27T17:42:27.000Z</time></trkpt>
        <trkpt lat="29.662648" lon="104.660367"><ele>763.32825</ele><time>2026-03-27T17:43:09.000Z</time></trkpt>
        <trkpt lat="29.662633" lon="104.660382"><ele>763.7502</ele><time>2026-03-27T17:43:13.000Z</time></trkpt>
        <trkpt lat="29.662605" lon="104.660425"><ele>763.57446</ele><time>2026-03-27T17:43:17.000Z</time></trkpt>
        <trkpt lat="29.662568" lon="104.660474"><ele>763.33966</ele><time>2026-03-27T17:43:21.000Z</time></trkpt>
        <trkpt lat="29.662534" lon="104.660526"><ele>762.7251</ele><time>2026-03-27T17:43:26.000Z</time></trkpt>
        <trkpt lat="29.662506" lon="104.660581"><ele>761.2171</ele><time>2026-03-27T17:43:44.000Z</time></trkpt>
        <trkpt lat="29.662499" lon="104.660622"><ele>761.2667</ele><time>2026-03-27T17:43:49.000Z</time></trkpt>
        <trkpt lat="29.662501" lon="104.660586"><ele>760.6773</ele><time>2026-03-27T17:46:47.000Z</time></trkpt>
        <trkpt lat="29.662516" lon="104.660546"><ele>760.8488</ele><time>2026-03-27T17:46:50.000Z</time></trkpt>
        <trkpt lat="29.662541" lon="104.660489"><ele>760.8745</ele><time>2026-03-27T17:46:54.000Z</time></trkpt>
        <trkpt lat="29.66257" lon="104.660443"><ele>761.0428</ele><time>2026-03-27T17:46:57.000Z</time></trkpt>
        <trkpt lat="29.662603" lon="104.660384"><ele>761.6105</ele><time>2026-03-27T17:47:01.000Z</time></trkpt>
        <trkpt lat="29.66263" lon="104.660331"><ele>761.77124</ele><time>2026-03-27T17:47:05.000Z</time></trkpt>
        <trkpt lat="29.662635" lon="104.660276"><ele>762.7168</ele><time>2026-03-27T17:47:09.000Z</time></trkpt>
        <trkpt lat="29.662627" lon="104.660216"><ele>764.4549</ele><time>2026-03-27T17:47:13.000Z</time></trkpt>
        <trkpt lat="29.662624" lon="104.660164"><ele>765.3305</ele><time>2026-03-27T17:47:16.000Z</time></trkpt>
        <trkpt lat="29.662631" lon="104.660101"><ele>766.0205</ele><time>2026-03-27T17:47:20.000Z</time></trkpt>
        <trkpt lat="29.662641" lon="104.660037"><ele>766.2086</ele><time>2026-03-27T17:47:24.000Z</time></trkpt>
        <trkpt lat="29.662665" lon="104.659986"><ele>766.3949</ele><time>2026-03-27T17:47:28.000Z</time></trkpt>
        <trkpt lat="29.66271" lon="104.659959"><ele>767.69995</ele><time>2026-03-27T17:47:32.000Z</time></trkpt>
        <trkpt lat="29.662762" lon="104.659937"><ele>768.7769</ele><time>2026-03-27T17:47:36.000Z</time></trkpt>
        <trkpt lat="29.662768" lon="104.659897"><ele>769.8123</ele><time>2026-03-27T17:47:41.000Z</time></trkpt>
        <trkpt lat="29.662734" lon="104.659852"><ele>770.67676</ele><time>2026-03-27T17:47:46.000Z</time></trkpt>
        <trkpt lat="29.662702" lon="104.659804"><ele>771.19293</ele><time>2026-03-27T17:47:51.000Z</time></trkpt>
        <trkpt lat="29.662679" lon="104.659755"><ele>771.8501</ele><time>2026-03-27T17:47:56.000Z</time></trkpt>
        <trkpt lat="29.66266" lon="104.6597"><ele>772.4514</ele><time>2026-03-27T17:48:02.000Z</time></trkpt>
        <trkpt lat="29.662652" lon="104.659645"><ele>773.32666</ele><time>2026-03-27T17:48:08.000Z</time></trkpt>
        <trkpt lat="29.662648" lon="104.659584"><ele>774.5166</ele><time>2026-03-27T17:48:15.000Z</time></trkpt>
        <trkpt lat="29.662641" lon="104.659534"><ele>775.0302</ele><time>2026-03-27T17:48:19.000Z</time></trkpt>
        <trkpt lat="29.662641" lon="104.65947"><ele>775.4699</ele><time>2026-03-27T17:48:24.000Z</time></trkpt>
        <trkpt lat="29.66264" lon="104.65941"><ele>775.78217</ele><time>2026-03-27T17:48:29.000Z</time></trkpt>
        <trkpt lat="29.662638" lon="104.659357"><ele>775.78394</ele><time>2026-03-27T17:48:33.000Z</time></trkpt>
        <trkpt lat="29.662606" lon="104.659292"><ele>774.7182</ele><time>2026-03-27T17:48:40.000Z</time></trkpt>
        <trkpt lat="29.662581" lon="104.659246"><ele>773.71497</ele><time>2026-03-27T17:48:44.000Z</time></trkpt>
        <trkpt lat="29.66254" lon="104.659199"><ele>772.14935</ele><time>2026-03-27T17:48:49.000Z</time></trkpt>
        <trkpt lat="29.662496" lon="104.659161"><ele>771.49927</ele><time>2026-03-27T17:48:53.000Z</time></trkpt>
        <trkpt lat="29.662459" lon="104.659114"><ele>770.7142</ele><time>2026-03-27T17:48:57.000Z</time></trkpt>
        <trkpt lat="29.662435" lon="104.659056"><ele>770.75946</ele><time>2026-03-27T17:49:00.000Z</time></trkpt>
        <trkpt lat="29.662408" lon="104.658998"><ele>771.81665</ele><time>2026-03-27T17:49:04.000Z</time></trkpt>
        <trkpt lat="29.662376" lon="104.658964"><ele>772.52997</ele><time>2026-03-27T17:49:07.000Z</time></trkpt>
        <trkpt lat="29.662334" lon="104.658951"><ele>773.45557</ele><time>2026-03-27T17:49:10.000Z</time></trkpt>
        <trkpt lat="29.662289" lon="104.658959"><ele>774.2447</ele><time>2026-03-27T17:49:13.000Z</time></trkpt>
        <trkpt lat="29.662242" lon="104.658975"><ele>774.62506</ele><time>2026-03-27T17:49:16.000Z</time></trkpt>
        <trkpt lat="29.662194" lon="104.658989"><ele>774.4184</ele><time>2026-03-27T17:49:19.000Z</time></trkpt>
        <trkpt lat="29.662146" lon="104.659002"><ele>773.7921</ele><time>2026-03-27T17:49:22.000Z</time></trkpt>
        <trkpt lat="29.662084" lon="104.659008"><ele>772.6686</ele><time>2026-03-27T17:49:26.000Z</time></trkpt>
        <trkpt lat="29.662027" lon="104.658998"><ele>770.44666</ele><time>2026-03-27T17:49:30.000Z</time></trkpt>
        <trkpt lat="29.661978" lon="104.658968"><ele>768.76904</ele><time>2026-03-27T17:49:34.000Z</time></trkpt>
        <trkpt lat="29.661935" lon="104.65892"><ele>767.6636</ele><time>2026-03-27T17:49:38.000Z</time></trkpt>
        <trkpt lat="29.661902" lon="104.658873"><ele>768.2783</ele><time>2026-03-27T17:49:42.000Z</time></trkpt>
        <trkpt lat="29.661895" lon="104.658805"><ele>767.5587</ele><time>2026-03-27T17:49:56.000Z</time></trkpt>
        <trkpt lat="29.661899" lon="104.658768"><ele>766.5057</ele><time>2026-03-27T17:49:59.000Z</time></trkpt>
        <trkpt lat="29.661896" lon="104.658717"><ele>765.78986</ele><time>2026-03-27T17:50:02.000Z</time></trkpt>
        <trkpt lat="29.66186" lon="104.658677"><ele>765.9395</ele><time>2026-03-27T17:50:05.000Z</time></trkpt>
        <trkpt lat="29.661813" lon="104.658667"><ele>766.78357</ele><time>2026-03-27T17:50:08.000Z</time></trkpt>
        <trkpt lat="29.661759" lon="104.658698"><ele>767.75604</ele><time>2026-03-27T17:50:12.000Z</time></trkpt>
        <trkpt lat="29.661718" lon="104.65874"><ele>767.94415</ele><time>2026-03-27T17:50:15.000Z</time></trkpt>
        <trkpt lat="29.661676" lon="104.658792"><ele>767.8743</ele><time>2026-03-27T17:50:20.000Z</time></trkpt>
        <trkpt lat="29.661647" lon="104.658853"><ele>766.3797</ele><time>2026-03-27T17:50:25.000Z</time></trkpt>
        <trkpt lat="29.661607" lon="104.658883"><ele>765.9809</ele><time>2026-03-27T17:50:33.000Z</time></trkpt>
        <trkpt lat="29.661564" lon="104.658895"><ele>767.1017</ele><time>2026-03-27T17:50:38.000Z</time></trkpt>
        <trkpt lat="29.661517" lon="104.658901"><ele>768.275</ele><time>2026-03-27T17:50:42.000Z</time></trkpt>
        <trkpt lat="29.661477" lon="104.65893"><ele>769.3353</ele><time>2026-03-27T17:50:46.000Z</time></trkpt>
        <trkpt lat="29.661481" lon="104.658987"><ele>770.03143</ele><time>2026-03-27T17:50:54.000Z</time></trkpt>
        <trkpt lat="29.66151" lon="104.659039"><ele>769.26294</ele><time>2026-03-27T17:50:59.000Z</time></trkpt>
        <trkpt lat="29.661522" lon="104.659095"><ele>768.81464</ele><time>2026-03-27T17:51:03.000Z</time></trkpt>
        <trkpt lat="29.661512" lon="104.659159"><ele>768.94867</ele><time>2026-03-27T17:51:10.000Z</time></trkpt>
        <trkpt lat="29.661484" lon="104.659199"><ele>769.4835</ele><time>2026-03-27T17:51:15.000Z</time></trkpt>
        <trkpt lat="29.661442" lon="104.659234"><ele>770.01825</ele><time>2026-03-27T17:51:21.000Z</time></trkpt>
        <trkpt lat="29.6614" lon="104.659255"><ele>770.6684</ele><time>2026-03-27T17:51:26.000Z</time></trkpt>
        <trkpt lat="29.661349" lon="104.659249"><ele>771.07404</ele><time>2026-03-27T17:51:31.000Z</time></trkpt>
        <trkpt lat="29.661301" lon="104.659236"><ele>772.1141</ele><time>2026-03-27T17:51:36.000Z</time></trkpt>
        <trkpt lat="29.661244" lon="104.659221"><ele>773.7179</ele><time>2026-03-27T17:51:42.000Z</time></trkpt>
        <trkpt lat="29.661193" lon="104.659229"><ele>775.3449</ele><time>2026-03-27T17:51:48.000Z</time></trkpt>
        <trkpt lat="29.66115" lon="104.659229"><ele>776.5454</ele><time>2026-03-27T17:51:53.000Z</time></trkpt>
        <trkpt lat="29.661105" lon="104.659226"><ele>777.23346</ele><time>2026-03-27T17:51:58.000Z</time></trkpt>
        <trkpt lat="29.661056" lon="104.659226"><ele>777.6338</ele><time>2026-03-27T17:52:03.000Z</time></trkpt>
        <trkpt lat="29.661017" lon="104.659216"><ele>777.8053</ele><time>2026-03-27T17:52:06.000Z</time></trkpt>
        <trkpt lat="29.660968" lon="104.6592"><ele>777.7736</ele><time>2026-03-27T17:52:10.000Z</time></trkpt>
        <trkpt lat="29.660922" lon="104.659167"><ele>777.71564</ele><time>2026-03-27T17:52:14.000Z</time></trkpt>
        <trkpt lat="29.660895" lon="104.659112"><ele>777.56573</ele><time>2026-03-27T17:52:18.000Z</time></trkpt>
        <trkpt lat="29.660873" lon="104.659051"><ele>777.3092</ele><time>2026-03-27T17:52:22.000Z</time></trkpt>
        <trkpt lat="29.660859" lon="104.659"><ele>777.1685</ele><time>2026-03-27T17:52:26.000Z</time></trkpt>
        <trkpt lat="29.660848" lon="104.658946"><ele>777.319</ele><time>2026-03-27T17:52:29.000Z</time></trkpt>
        <trkpt lat="29.660822" lon="104.65888"><ele>777.47516</ele><time>2026-03-27T17:52:33.000Z</time></trkpt>
        <trkpt lat="29.66081" lon="104.658826"><ele>778.0021</ele><time>2026-03-27T17:52:36.000Z</time></trkpt>
        <trkpt lat="29.660786" lon="104.658763"><ele>778.4234</ele><time>2026-03-27T17:52:41.000Z</time></trkpt>
        <trkpt lat="29.660769" lon="104.658706"><ele>778.8603</ele><time>2026-03-27T17:52:46.000Z</time></trkpt>
        <trkpt lat="29.660759" lon="104.658651"><ele>779.84076</ele><time>2026-03-27T17:52:50.000Z</time></trkpt>
        <trkpt lat="29.660748" lon="104.658597"><ele>780.51825</ele><time>2026-03-27T17:52:54.000Z</time></trkpt>
        <trkpt lat="29.660737" lon="104.658516"><ele>782.0111</ele><time>2026-03-27T17:53:08.000Z</time></trkpt>
        <trkpt lat="29.660738" lon="104.658477"><ele>781.6528</ele><time>2026-03-27T17:53:13.000Z</time></trkpt>
        <trkpt lat="29.66074" lon="104.658414"><ele>781.6714</ele><time>2026-03-27T17:53:20.000Z</time></trkpt>
        <trkpt lat="29.660749" lon="104.658359"><ele>781.90344</ele><time>2026-03-27T17:53:25.000Z</time></trkpt>
        <trkpt lat="29.660728" lon="104.658306"><ele>782.9418</ele><time>2026-03-27T17:53:34.000Z</time></trkpt>
        <trkpt lat="29.66076" lon="104.658345"><ele>784.45465</ele><time>2026-03-27T17:53:51.000Z</time></trkpt>
        <trkpt lat="29.660743" lon="104.658311"><ele>783.6583</ele><time>2026-03-27T17:54:01.000Z</time></trkpt>
        <trkpt lat="29.660704" lon="104.658267"><ele>783.71967</ele><time>2026-03-27T17:54:06.000Z</time></trkpt>
        <trkpt lat="29.660656" lon="104.65825"><ele>783.99274</ele><time>2026-03-27T17:54:11.000Z</time></trkpt>
        <trkpt lat="29.660599" lon="104.658248"><ele>784.69244</ele><time>2026-03-27T17:54:19.000Z</time></trkpt>
        <trkpt lat="29.660566" lon="104.658224"><ele>786.2705</ele><time>2026-03-27T17:54:24.000Z</time></trkpt>
        <trkpt lat="29.660518" lon="104.658215"><ele>786.5048</ele><time>2026-03-27T17:54:33.000Z</time></trkpt>
        <trkpt lat="29.660466" lon="104.658229"><ele>784.9485</ele><time>2026-03-27T17:54:40.000Z</time></trkpt>
        <trkpt lat="29.66042" lon="104.658223"><ele>785.024</ele><time>2026-03-27T17:54:45.000Z</time></trkpt>
        <trkpt lat="29.660451" lon="104.658217"><ele>783.5888</ele><time>2026-03-27T17:54:55.000Z</time></trkpt>
        <trkpt lat="29.660433" lon="104.658255"><ele>782.80695</ele><time>2026-03-27T17:55:08.000Z</time></trkpt>
        <trkpt lat="29.660389" lon="104.658259"><ele>782.20184</ele><time>2026-03-27T17:55:12.000Z</time></trkpt>
        <trkpt lat="29.660339" lon="104.658251"><ele>781.7702</ele><time>2026-03-27T17:55:15.000Z</time></trkpt>
        <trkpt lat="29.66029" lon="104.658233"><ele>781.88776</ele><time>2026-03-27T17:55:19.000Z</time></trkpt>
        <trkpt lat="29.660242" lon="104.658209"><ele>781.9004</ele><time>2026-03-27T17:55:23.000Z</time></trkpt>
        <trkpt lat="29.660195" lon="104.658203"><ele>782.1711</ele><time>2026-03-27T17:55:27.000Z</time></trkpt>
        <trkpt lat="29.660209" lon="104.658161"><ele>782.77454</ele><time>2026-03-27T17:55:39.000Z</time></trkpt>
        <trkpt lat="29.660263" lon="104.658156"><ele>783.455</ele><time>2026-03-27T17:55:49.000Z</time></trkpt>
        <trkpt lat="29.660302" lon="104.658197"><ele>782.99335</ele><time>2026-03-27T17:55:57.000Z</time></trkpt>
        <trkpt lat="29.660334" lon="104.658222"><ele>782.9651</ele><time>2026-03-27T17:56:00.000Z</time></trkpt>
        <trkpt lat="29.660393" lon="104.658238"><ele>783.0346</ele><time>2026-03-27T17:56:07.000Z</time></trkpt>
        <trkpt lat="29.660437" lon="104.658238"><ele>782.76886</ele><time>2026-03-27T17:56:11.000Z</time></trkpt>
        <trkpt lat="29.66041" lon="104.658187"><ele>785.11676</ele><time>2026-03-27T17:56:39.000Z</time></trkpt>
        <trkpt lat="29.660379" lon="104.658154"><ele>785.75244</ele><time>2026-03-27T17:56:43.000Z</time></trkpt>
        <trkpt lat="29.660354" lon="104.658097"><ele>786.797</ele><time>2026-03-27T17:56:58.000Z</time></trkpt>
        <trkpt lat="29.660326" lon="104.65807"><ele>787.08167</ele><time>2026-03-27T17:57:03.000Z</time></trkpt>
        <trkpt lat="29.660351" lon="104.658095"><ele>786.223</ele><time>2026-03-27T17:57:17.000Z</time></trkpt>
        <trkpt lat="29.660396" lon="104.658118"><ele>786.416</ele><time>2026-03-27T17:57:24.000Z</time></trkpt>
        <trkpt lat="29.660417" lon="104.658162"><ele>786.1008</ele><time>2026-03-27T17:57:30.000Z</time></trkpt>
        <trkpt lat="29.660456" lon="104.658192"><ele>784.734</ele><time>2026-03-27T17:57:38.000Z</time></trkpt>
        <trkpt lat="29.660496" lon="104.65822"><ele>784.33057</ele><time>2026-03-27T17:57:47.000Z</time></trkpt>
        <trkpt lat="29.660533" lon="104.658251"><ele>783.08716</ele><time>2026-03-27T17:57:55.000Z</time></trkpt>
        <trkpt lat="29.66053" lon="104.658307"><ele>780.80035</ele><time>2026-03-27T17:58:16.000Z</time></trkpt>
        <trkpt lat="29.660572" lon="104.65831"><ele>779.84955</ele><time>2026-03-27T17:58:28.000Z</time></trkpt>
        <trkpt lat="29.660558" lon="104.658357"><ele>778.6371</ele><time>2026-03-27T17:58:36.000Z</time></trkpt>
        <trkpt lat="29.660516" lon="104.658373"><ele>778.21826</ele><time>2026-03-27T17:58:39.000Z</time></trkpt>
        <trkpt lat="29.660457" lon="104.658374"><ele>778.1209</ele><time>2026-03-27T17:58:44.000Z</time></trkpt>
        <trkpt lat="29.660489" lon="104.658361"><ele>778.78534</ele><time>2026-03-27T17:59:12.000Z</time></trkpt>
        <trkpt lat="29.660535" lon="104.658364"><ele>778.2751</ele><time>2026-03-27T17:59:16.000Z</time></trkpt>
        <trkpt lat="29.660584" lon="104.658384"><ele>779.2094</ele><time>2026-03-27T17:59:29.000Z</time></trkpt>
        <trkpt lat="29.660573" lon="104.65844"><ele>777.98724</ele><time>2026-03-27T17:59:40.000Z</time></trkpt>
        <trkpt lat="29.660536" lon="104.658475"><ele>777.1139</ele><time>2026-03-27T17:59:59.000Z</time></trkpt>
        <trkpt lat="29.660559" lon="104.658427"><ele>777.55963</ele><time>2026-03-27T18:00:07.000Z</time></trkpt>
        <trkpt lat="29.660553" lon="104.658382"><ele>778.1429</ele><time>2026-03-27T18:00:11.000Z</time></trkpt>
        <trkpt lat="29.660558" lon="104.658316"><ele>779.99396</ele><time>2026-03-27T18:00:18.000Z</time></trkpt>
        <trkpt lat="29.660533" lon="104.658274"><ele>782.28064</ele><time>2026-03-27T18:00:23.000Z</time></trkpt>
        <trkpt lat="29.660504" lon="104.658228"><ele>784.4086</ele><time>2026-03-27T18:00:29.000Z</time></trkpt>
        <trkpt lat="29.660459" lon="104.658237"><ele>784.363</ele><time>2026-03-27T18:00:33.000Z</time></trkpt>
        <trkpt lat="29.660416" lon="104.658244"><ele>783.8846</ele><time>2026-03-27T18:00:36.000Z</time></trkpt>
        <trkpt lat="29.660366" lon="104.658245"><ele>782.9092</ele><time>2026-03-27T18:00:39.000Z</time></trkpt>
        <trkpt lat="29.660305" lon="104.658228"><ele>782.09503</ele><time>2026-03-27T18:00:43.000Z</time></trkpt>
        <trkpt lat="29.66025" lon="104.658206"><ele>781.51385</ele><time>2026-03-27T18:00:47.000Z</time></trkpt>
        <trkpt lat="29.660201" lon="104.658191"><ele>780.9455</ele><time>2026-03-27T18:00:52.000Z</time></trkpt>
        <trkpt lat="29.660163" lon="104.658212"><ele>781.3466</ele><time>2026-03-27T18:00:56.000Z</time></trkpt>
        <trkpt lat="29.660173" lon="104.658258"><ele>780.6231</ele><time>2026-03-27T18:01:01.000Z</time></trkpt>
        <trkpt lat="29.660219" lon="104.65829"><ele>780.7936</ele><time>2026-03-27T18:01:05.000Z</time></trkpt>
        <trkpt lat="29.660273" lon="104.65832"><ele>780.559</ele><time>2026-03-27T18:01:10.000Z</time></trkpt>
        <trkpt lat="29.660322" lon="104.658353"><ele>778.8178</ele><time>2026-03-27T18:01:16.000Z</time></trkpt>
        <trkpt lat="29.660365" lon="104.658384"><ele>778.13214</ele><time>2026-03-27T18:01:23.000Z</time></trkpt>
        <trkpt lat="29.660403" lon="104.658415"><ele>777.7576</ele><time>2026-03-27T18:01:33.000Z</time></trkpt>
        <trkpt lat="29.660442" lon="104.658429"><ele>777.00287</ele><time>2026-03-27T18:01:39.000Z</time></trkpt>
        <trkpt lat="29.660487" lon="104.658444"><ele>776.3162</ele><time>2026-03-27T18:01:44.000Z</time></trkpt>
        <trkpt lat="29.660523" lon="104.658477"><ele>775.58624</ele><time>2026-03-27T18:01:48.000Z</time></trkpt>
        <trkpt lat="29.660511" lon="104.658537"><ele>775.8902</ele><time>2026-03-27T18:02:02.000Z</time></trkpt>
        <trkpt lat="29.660532" lon="104.658582"><ele>774.9668</ele><time>2026-03-27T18:02:22.000Z</time></trkpt>
        <trkpt lat="29.660532" lon="104.658633"><ele>775.0773</ele><time>2026-03-27T18:02:30.000Z</time></trkpt>
        <trkpt lat="29.660532" lon="104.658683"><ele>773.83026</ele><time>2026-03-27T18:02:35.000Z</time></trkpt>
        <trkpt lat="29.660546" lon="104.658731"><ele>773.30743</ele><time>2026-03-27T18:02:39.000Z</time></trkpt>
        <trkpt lat="29.660571" lon="104.658781"><ele>771.59393</ele><time>2026-03-27T18:02:44.000Z</time></trkpt>
        <trkpt lat="29.660593" lon="104.658831"><ele>770.541</ele><time>2026-03-27T18:02:49.000Z</time></trkpt>
        <trkpt lat="29.660612" lon="104.658882"><ele>769.4824</ele><time>2026-03-27T18:02:54.000Z</time></trkpt>
        <trkpt lat="29.660624" lon="104.658929"><ele>768.71063</ele><time>2026-03-27T18:02:59.000Z</time></trkpt>
        <trkpt lat="29.660626" lon="104.658998"><ele>767.7894</ele><time>2026-03-27T18:03:08.000Z</time></trkpt>
        <trkpt lat="29.660582" lon="104.658962"><ele>765.68896</ele><time>2026-03-27T18:03:22.000Z</time></trkpt>
        <trkpt lat="29.66054" lon="104.658935"><ele>764.6505</ele><time>2026-03-27T18:03:30.000Z</time></trkpt>
        <trkpt lat="29.660503" lon="104.658925"><ele>765.64624</ele><time>2026-03-27T18:03:34.000Z</time></trkpt>
        <trkpt lat="29.660498" lon="104.658975"><ele>766.65186</ele><time>2026-03-27T18:03:43.000Z</time></trkpt>
        <trkpt lat="29.66049" lon="104.65902"><ele>765.2988</ele><time>2026-03-27T18:03:47.000Z</time></trkpt>
        <trkpt lat="29.660481" lon="104.659081"><ele>762.9823</ele><time>2026-03-27T18:03:52.000Z</time></trkpt>
        <trkpt lat="29.660458" lon="104.659136"><ele>759.98724</ele><time>2026-03-27T18:03:58.000Z</time></trkpt>
        <trkpt lat="29.660438" lon="104.659189"><ele>755.9713</ele><time>2026-03-27T18:04:10.000Z</time></trkpt>
        <trkpt lat="29.660414" lon="104.659222"><ele>754.5014</ele><time>2026-03-27T18:04:15.000Z</time></trkpt>
        <trkpt lat="29.660395" lon="104.659279"><ele>752.331</ele><time>2026-03-27T18:04:22.000Z</time></trkpt>
        <trkpt lat="29.660383" lon="104.65934"><ele>750.684</ele><time>2026-03-27T18:04:39.000Z</time></trkpt>
        <trkpt lat="29.660354" lon="104.659371"><ele>750.37213</ele><time>2026-03-27T18:04:46.000Z</time></trkpt>
        <trkpt lat="29.660327" lon="104.659329"><ele>749.06866</ele><time>2026-03-27T18:05:34.000Z</time></trkpt>
        <trkpt lat="29.660284" lon="104.659356"><ele>747.8627</ele><time>2026-03-27T18:06:17.000Z</time></trkpt>
        <trkpt lat="29.660255" lon="104.659395"><ele>748.1892</ele><time>2026-03-27T18:06:22.000Z</time></trkpt>
        <trkpt lat="29.660214" lon="104.659429"><ele>748.18085</ele><time>2026-03-27T18:06:27.000Z</time></trkpt>
        <trkpt lat="29.66017" lon="104.659467"><ele>748.09546</ele><time>2026-03-27T18:06:32.000Z</time></trkpt>
        <trkpt lat="29.66013" lon="104.659502"><ele>748.29675</ele><time>2026-03-27T18:06:37.000Z</time></trkpt>
        <trkpt lat="29.660098" lon="104.659544"><ele>748.2462</ele><time>2026-03-27T18:06:43.000Z</time></trkpt>
        <trkpt lat="29.660068" lon="104.659582"><ele>747.9133</ele><time>2026-03-27T18:06:49.000Z</time></trkpt>
        <trkpt lat="29.660031" lon="104.659627"><ele>748.19543</ele><time>2026-03-27T18:06:55.000Z</time></trkpt>
        <trkpt lat="29.65999" lon="104.659666"><ele>748.4409</ele><time>2026-03-27T18:07:01.000Z</time></trkpt>
        <trkpt lat="29.659939" lon="104.659672"><ele>748.3991</ele><time>2026-03-27T18:07:10.000Z</time></trkpt>
        <trkpt lat="29.659891" lon="104.659672"><ele>747.7664</ele><time>2026-03-27T18:07:16.000Z</time></trkpt>
        <trkpt lat="29.659845" lon="104.659674"><ele>747.13776</ele><time>2026-03-27T18:07:21.000Z</time></trkpt>
        <trkpt lat="29.659794" lon="104.659657"><ele>746.7158</ele><time>2026-03-27T18:07:26.000Z</time></trkpt>
        <trkpt lat="29.659747" lon="104.659629"><ele>746.40875</ele><time>2026-03-27T18:07:31.000Z</time></trkpt>
        <trkpt lat="29.659711" lon="104.659595"><ele>746.43396</ele><time>2026-03-27T18:07:35.000Z</time></trkpt>
        <trkpt lat="29.659682" lon="104.659548"><ele>746.4263</ele><time>2026-03-27T18:07:40.000Z</time></trkpt>
        <trkpt lat="29.659652" lon="104.659491"><ele>746.76843</ele><time>2026-03-27T18:07:47.000Z</time></trkpt>
        <trkpt lat="29.659624" lon="104.659441"><ele>747.45056</ele><time>2026-03-27T18:07:52.000Z</time></trkpt>
        <trkpt lat="29.65961" lon="104.65938"><ele>748.00885</ele><time>2026-03-27T18:07:56.000Z</time></trkpt>
        <trkpt lat="29.659594" lon="104.659323"><ele>748.91547</ele><time>2026-03-27T18:08:01.000Z</time></trkpt>
        <trkpt lat="29.659585" lon="104.659263"><ele>750.0123</ele><time>2026-03-27T18:08:06.000Z</time></trkpt>
        <trkpt lat="29.659581" lon="104.659207"><ele>751.08014</ele><time>2026-03-27T18:08:11.000Z</time></trkpt>
        <trkpt lat="29.659578" lon="104.659155"><ele>751.90497</ele><time>2026-03-27T18:08:16.000Z</time></trkpt>
        <trkpt lat="29.659564" lon="104.659103"><ele>752.53625</ele><time>2026-03-27T18:08:21.000Z</time></trkpt>
        <trkpt lat="29.659538" lon="104.659054"><ele>752.523</ele><time>2026-03-27T18:08:28.000Z</time></trkpt>
        <trkpt lat="29.659529" lon="104.659004"><ele>752.8422</ele><time>2026-03-27T18:08:35.000Z</time></trkpt>
        <trkpt lat="29.659568" lon="104.659049"><ele>753.61273</ele><time>2026-03-27T18:11:09.000Z</time></trkpt>
        <trkpt lat="29.659531" lon="104.658995"><ele>752.60675</ele><time>2026-03-27T18:11:39.000Z</time></trkpt>
        <trkpt lat="29.659505" lon="104.658945"><ele>752.1396</ele><time>2026-03-27T18:11:43.000Z</time></trkpt>
        <trkpt lat="29.659487" lon="104.658885"><ele>752.0808</ele><time>2026-03-27T18:11:47.000Z</time></trkpt>
        <trkpt lat="29.659472" lon="104.658823"><ele>752.48535</ele><time>2026-03-27T18:11:51.000Z</time></trkpt>
        <trkpt lat="29.659461" lon="104.658756"><ele>752.52264</ele><time>2026-03-27T18:11:55.000Z</time></trkpt>
        <trkpt lat="29.659446" lon="104.658691"><ele>752.5286</ele><time>2026-03-27T18:11:59.000Z</time></trkpt>
        <trkpt lat="29.65943" lon="104.658633"><ele>752.9866</ele><time>2026-03-27T18:12:02.000Z</time></trkpt>
        <trkpt lat="29.65941" lon="104.658575"><ele>753.42395</ele><time>2026-03-27T18:12:06.000Z</time></trkpt>
        <trkpt lat="29.659388" lon="104.658514"><ele>754.6458</ele><time>2026-03-27T18:12:10.000Z</time></trkpt>
        <trkpt lat="29.659358" lon="104.658461"><ele>755.8826</ele><time>2026-03-27T18:12:14.000Z</time></trkpt>
        <trkpt lat="29.659312" lon="104.658435"><ele>756.46277</ele><time>2026-03-27T18:12:19.000Z</time></trkpt>
        <trkpt lat="29.65935" lon="104.65845"><ele>749.69604</ele><time>2026-03-27T18:13:04.000Z</time></trkpt>
        <trkpt lat="29.659311" lon="104.658429"><ele>748.50696</ele><time>2026-03-27T18:13:14.000Z</time></trkpt>
        <trkpt lat="29.659253" lon="104.658392"><ele>750.4313</ele><time>2026-03-27T18:13:21.000Z</time></trkpt>
        <trkpt lat="29.659218" lon="104.658363"><ele>751.6555</ele><time>2026-03-27T18:13:26.000Z</time></trkpt>
        <trkpt lat="29.659181" lon="104.658327"><ele>751.94037</ele><time>2026-03-27T18:13:30.000Z</time></trkpt>
        <trkpt lat="29.659139" lon="104.658289"><ele>751.3667</ele><time>2026-03-27T18:13:34.000Z</time></trkpt>
        <trkpt lat="29.659094" lon="104.658249"><ele>751.6387</ele><time>2026-03-27T18:13:38.000Z</time></trkpt>
        <trkpt lat="29.65905" lon="104.658211"><ele>752.8806</ele><time>2026-03-27T18:13:42.000Z</time></trkpt>
        <trkpt lat="29.659008" lon="104.658183"><ele>753.95416</ele><time>2026-03-27T18:13:46.000Z</time></trkpt>
        <trkpt lat="29.658957" lon="104.658168"><ele>753.9736</ele><time>2026-03-27T18:13:50.000Z</time></trkpt>
        <trkpt lat="29.658908" lon="104.658181"><ele>753.4296</ele><time>2026-03-27T18:13:54.000Z</time></trkpt>
        <trkpt lat="29.658868" lon="104.658219"><ele>753.10406</ele><time>2026-03-27T18:13:58.000Z</time></trkpt>
        <trkpt lat="29.658839" lon="104.658277"><ele>754.2583</ele><time>2026-03-27T18:14:03.000Z</time></trkpt>
        <trkpt lat="29.65881" lon="104.658347"><ele>753.18317</ele><time>2026-03-27T18:14:14.000Z</time></trkpt>
        <trkpt lat="29.658787" lon="104.658382"><ele>753.4985</ele><time>2026-03-27T18:14:18.000Z</time></trkpt>
        <trkpt lat="29.658757" lon="104.658436"><ele>753.5867</ele><time>2026-03-27T18:14:24.000Z</time></trkpt>
        <trkpt lat="29.658731" lon="104.658483"><ele>753.864</ele><time>2026-03-27T18:14:28.000Z</time></trkpt>
        <trkpt lat="29.658691" lon="104.658522"><ele>754.497</ele><time>2026-03-27T18:14:32.000Z</time></trkpt>
        <trkpt lat="29.658646" lon="104.658551"><ele>755.0482</ele><time>2026-03-27T18:14:36.000Z</time></trkpt>
        <trkpt lat="29.658593" lon="104.658564"><ele>755.65466</ele><time>2026-03-27T18:14:40.000Z</time></trkpt>
        <trkpt lat="29.65854" lon="104.65859"><ele>757.46375</ele><time>2026-03-27T18:14:45.000Z</time></trkpt>
        <trkpt lat="29.658492" lon="104.658605"><ele>758.4818</ele><time>2026-03-27T18:14:49.000Z</time></trkpt>
        <trkpt lat="29.658444" lon="104.658612"><ele>759.1337</ele><time>2026-03-27T18:14:53.000Z</time></trkpt>
        <trkpt lat="29.658391" lon="104.658618"><ele>759.8412</ele><time>2026-03-27T18:14:57.000Z</time></trkpt>
        <trkpt lat="29.658342" lon="104.658627"><ele>760.19055</ele><time>2026-03-27T18:15:01.000Z</time></trkpt>
        <trkpt lat="29.658292" lon="104.658633"><ele>761.2974</ele><time>2026-03-27T18:15:05.000Z</time></trkpt>
        <trkpt lat="29.65824" lon="104.65864"><ele>762.64264</ele><time>2026-03-27T18:15:10.000Z</time></trkpt>
        <trkpt lat="29.658188" lon="104.658652"><ele>763.71875</ele><time>2026-03-27T18:15:16.000Z</time></trkpt>
        <trkpt lat="29.65814" lon="104.658661"><ele>764.6942</ele><time>2026-03-27T18:15:21.000Z</time></trkpt>
        <trkpt lat="29.658085" lon="104.658671"><ele>765.64954</ele><time>2026-03-27T18:15:26.000Z</time></trkpt>
        <trkpt lat="29.658038" lon="104.658705"><ele>765.8913</ele><time>2026-03-27T18:15:32.000Z</time></trkpt>
        <trkpt lat="29.657987" lon="104.658728"><ele>765.3887</ele><time>2026-03-27T18:15:38.000Z</time></trkpt>
        <trkpt lat="29.657945" lon="104.658758"><ele>764.48584</ele><time>2026-03-27T18:15:43.000Z</time></trkpt>
        <trkpt lat="29.6579" lon="104.658774"><ele>763.6913</ele><time>2026-03-27T18:15:48.000Z</time></trkpt>
        <trkpt lat="29.657854" lon="104.658777"><ele>763.4763</ele><time>2026-03-27T18:15:52.000Z</time></trkpt>
        <trkpt lat="29.657797" lon="104.658779"><ele>764.0977</ele><time>2026-03-27T18:15:57.000Z</time></trkpt>
        <trkpt lat="29.65775" lon="104.658784"><ele>764.5803</ele><time>2026-03-27T18:16:01.000Z</time></trkpt>
        <trkpt lat="29.657694" lon="104.658788"><ele>765.1858</ele><time>2026-03-27T18:16:06.000Z</time></trkpt>
        <trkpt lat="29.657641" lon="104.658796"><ele>767.99384</ele><time>2026-03-27T18:16:11.000Z</time></trkpt>
        <trkpt lat="29.657595" lon="104.658818"><ele>771.0884</ele><time>2026-03-27T18:16:16.000Z</time></trkpt>
        <trkpt lat="29.657554" lon="104.658807"><ele>771.52185</ele><time>2026-03-27T18:16:19.000Z</time></trkpt>
        <trkpt lat="29.657503" lon="104.658798"><ele>770.5308</ele><time>2026-03-27T18:16:23.000Z</time></trkpt>
        <trkpt lat="29.657445" lon="104.658783"><ele>768.8606</ele><time>2026-03-27T18:16:27.000Z</time></trkpt>
        <trkpt lat="29.65738" lon="104.658779"><ele>767.8433</ele><time>2026-03-27T18:16:31.000Z</time></trkpt>
        <trkpt lat="29.657321" lon="104.658778"><ele>767.641</ele><time>2026-03-27T18:16:35.000Z</time></trkpt>
        <trkpt lat="29.657269" lon="104.65877"><ele>768.736</ele><time>2026-03-27T18:16:39.000Z</time></trkpt>
        <trkpt lat="29.657222" lon="104.658754"><ele>770.0962</ele><time>2026-03-27T18:16:43.000Z</time></trkpt>
        <trkpt lat="29.65717" lon="104.65873"><ele>776.94006</ele><time>2026-03-27T18:16:48.000Z</time></trkpt>
        <trkpt lat="29.657134" lon="104.658709"><ele>779.3906</ele><time>2026-03-27T18:16:51.000Z</time></trkpt>
        <trkpt lat="29.657091" lon="104.658694"><ele>780.0063</ele><time>2026-03-27T18:16:54.000Z</time></trkpt>
        <trkpt lat="29.657049" lon="104.658675"><ele>779.59406</ele><time>2026-03-27T18:16:57.000Z</time></trkpt>
        <trkpt lat="29.656984" lon="104.658651"><ele>777.96625</ele><time>2026-03-27T18:17:01.000Z</time></trkpt>
        <trkpt lat="29.656936" lon="104.658623"><ele>776.21747</ele><time>2026-03-27T18:17:04.000Z</time></trkpt>
        <trkpt lat="29.656888" lon="104.6586"><ele>774.65625</ele><time>2026-03-27T18:17:07.000Z</time></trkpt>
        <trkpt lat="29.656842" lon="104.65858"><ele>774.0221</ele><time>2026-03-27T18:17:10.000Z</time></trkpt>
        <trkpt lat="29.656797" lon="104.658557"><ele>774.0484</ele><time>2026-03-27T18:17:13.000Z</time></trkpt>
        <trkpt lat="29.656754" lon="104.658513"><ele>774.2524</ele><time>2026-03-27T18:17:17.000Z</time></trkpt>
        <trkpt lat="29.656717" lon="104.658459"><ele>774.552</ele><time>2026-03-27T18:17:22.000Z</time></trkpt>
        <trkpt lat="29.656693" lon="104.658404"><ele>773.9782</ele><time>2026-03-27T18:17:26.000Z</time></trkpt>
        <trkpt lat="29.656672" lon="104.65836"><ele>773.3773</ele><time>2026-03-27T18:17:29.000Z</time></trkpt>
        <trkpt lat="29.65664" lon="104.658311"><ele>772.4331</ele><time>2026-03-27T18:17:33.000Z</time></trkpt>
        <trkpt lat="29.656607" lon="104.658261"><ele>772.07294</ele><time>2026-03-27T18:17:38.000Z</time></trkpt>
        <trkpt lat="29.65658" lon="104.658215"><ele>772.3599</ele><time>2026-03-27T18:17:42.000Z</time></trkpt>
        <trkpt lat="29.656545" lon="104.65818"><ele>772.9381</ele><time>2026-03-27T18:17:46.000Z</time></trkpt>
        <trkpt lat="29.656511" lon="104.658142"><ele>773.82916</ele><time>2026-03-27T18:17:50.000Z</time></trkpt>
        <trkpt lat="29.656477" lon="104.658096"><ele>774.2022</ele><time>2026-03-27T18:17:55.000Z</time></trkpt>
        <trkpt lat="29.656429" lon="104.658089"><ele>774.6072</ele><time>2026-03-27T18:18:04.000Z</time></trkpt>
        <trkpt lat="29.656382" lon="104.658079"><ele>774.99194</ele><time>2026-03-27T18:18:12.000Z</time></trkpt>
        <trkpt lat="29.656344" lon="104.65807"><ele>775.55334</ele><time>2026-03-27T18:18:16.000Z</time></trkpt>
        <trkpt lat="29.656308" lon="104.658024"><ele>775.80334</ele><time>2026-03-27T18:18:21.000Z</time></trkpt>
        <trkpt lat="29.656275" lon="104.657968"><ele>775.153</ele><time>2026-03-27T18:18:26.000Z</time></trkpt>
        <trkpt lat="29.656255" lon="104.657915"><ele>774.62195</ele><time>2026-03-27T18:18:31.000Z</time></trkpt>
        <trkpt lat="29.656214" lon="104.657882"><ele>773.8886</ele><time>2026-03-27T18:18:37.000Z</time></trkpt>
        <trkpt lat="29.656172" lon="104.657852"><ele>773.6066</ele><time>2026-03-27T18:18:43.000Z</time></trkpt>
        <trkpt lat="29.656121" lon="104.657838"><ele>773.12335</ele><time>2026-03-27T18:18:50.000Z</time></trkpt>
        <trkpt lat="29.656074" lon="104.657831"><ele>773.39014</ele><time>2026-03-27T18:18:55.000Z</time></trkpt>
        <trkpt lat="29.65603" lon="104.65781"><ele>772.5609</ele><time>2026-03-27T18:19:00.000Z</time></trkpt>
        <trkpt lat="29.656031" lon="104.657757"><ele>771.44745</ele><time>2026-03-27T18:19:07.000Z</time></trkpt>
        <trkpt lat="29.65603" lon="104.657702"><ele>770.90405</ele><time>2026-03-27T18:19:12.000Z</time></trkpt>
        <trkpt lat="29.656028" lon="104.657639"><ele>770.9165</ele><time>2026-03-27T18:19:16.000Z</time></trkpt>
        <trkpt lat="29.656041" lon="104.657575"><ele>771.53864</ele><time>2026-03-27T18:19:21.000Z</time></trkpt>
        <trkpt lat="29.656055" lon="104.657519"><ele>772.3244</ele><time>2026-03-27T18:19:25.000Z</time></trkpt>
        <trkpt lat="29.656065" lon="104.657462"><ele>773.3407</ele><time>2026-03-27T18:19:29.000Z</time></trkpt>
        <trkpt lat="29.656034" lon="104.657426"><ele>775.3057</ele><time>2026-03-27T18:19:35.000Z</time></trkpt>
        <trkpt lat="29.65599" lon="104.657432"><ele>775.8079</ele><time>2026-03-27T18:19:39.000Z</time></trkpt>
        <trkpt lat="29.655941" lon="104.657445"><ele>776.09436</ele><time>2026-03-27T18:19:44.000Z</time></trkpt>
        <trkpt lat="29.655894" lon="104.657402"><ele>775.6569</ele><time>2026-03-27T18:20:18.000Z</time></trkpt>
        <trkpt lat="29.655857" lon="104.657365"><ele>777.0095</ele><time>2026-03-27T18:20:30.000Z</time></trkpt>
        <trkpt lat="29.655843" lon="104.657316"><ele>778.96625</ele><time>2026-03-27T18:20:35.000Z</time></trkpt>
        <trkpt lat="29.655827" lon="104.657265"><ele>780.2555</ele><time>2026-03-27T18:20:41.000Z</time></trkpt>
        <trkpt lat="29.655808" lon="104.65721"><ele>781.5799</ele><time>2026-03-27T18:20:52.000Z</time></trkpt>
        <trkpt lat="29.65579" lon="104.65715"><ele>782.2391</ele><time>2026-03-27T18:21:22.000Z</time></trkpt>
        <trkpt lat="29.655763" lon="104.657174"><ele>782.3485</ele><time>2026-03-27T18:21:26.000Z</time></trkpt>
        <trkpt lat="29.655706" lon="104.657182"><ele>782.3044</ele><time>2026-03-27T18:21:32.000Z</time></trkpt>
        <trkpt lat="29.655662" lon="104.657207"><ele>782.12854</ele><time>2026-03-27T18:21:36.000Z</time></trkpt>
        <trkpt lat="29.655615" lon="104.65724"><ele>781.526</ele><time>2026-03-27T18:21:42.000Z</time></trkpt>
        <trkpt lat="29.655561" lon="104.657248"><ele>780.43896</ele><time>2026-03-27T18:21:51.000Z</time></trkpt>
        <trkpt lat="29.655518" lon="104.657232"><ele>780.00464</ele><time>2026-03-27T18:21:55.000Z</time></trkpt>
        <trkpt lat="29.655469" lon="104.657214"><ele>779.9638</ele><time>2026-03-27T18:21:59.000Z</time></trkpt>
        <trkpt lat="29.65542" lon="104.657204"><ele>780.00793</ele><time>2026-03-27T18:22:03.000Z</time></trkpt>
        <trkpt lat="29.65537" lon="104.657208"><ele>779.8393</ele><time>2026-03-27T18:22:07.000Z</time></trkpt>
        <trkpt lat="29.655319" lon="104.657221"><ele>779.35474</ele><time>2026-03-27T18:22:12.000Z</time></trkpt>
        <trkpt lat="29.655266" lon="104.657235"><ele>777.80194</ele><time>2026-03-27T18:22:21.000Z</time></trkpt>
        <trkpt lat="29.655221" lon="104.65725"><ele>776.7434</ele><time>2026-03-27T18:22:25.000Z</time></trkpt>
        <trkpt lat="29.655171" lon="104.657257"><ele>776.7768</ele><time>2026-03-27T18:22:29.000Z</time></trkpt>
        <trkpt lat="29.655117" lon="104.657235"><ele>776.0523</ele><time>2026-03-27T18:22:36.000Z</time></trkpt>
        <trkpt lat="29.655082" lon="104.657202"><ele>776.2613</ele><time>2026-03-27T18:22:39.000Z</time></trkpt>
        <trkpt lat="29.655048" lon="104.657161"><ele>776.7574</ele><time>2026-03-27T18:22:43.000Z</time></trkpt>
        <trkpt lat="29.655024" lon="104.657106"><ele>777.45544</ele><time>2026-03-27T18:22:47.000Z</time></trkpt>
        <trkpt lat="29.655002" lon="104.657035"><ele>778.73944</ele><time>2026-03-27T18:22:52.000Z</time></trkpt>
        <trkpt lat="29.654997" lon="104.656975"><ele>779.4987</ele><time>2026-03-27T18:22:57.000Z</time></trkpt>
        <trkpt lat="29.654985" lon="104.656926"><ele>780.23364</ele><time>2026-03-27T18:23:01.000Z</time></trkpt>
        <trkpt lat="29.654965" lon="104.656874"><ele>781.4139</ele><time>2026-03-27T18:23:06.000Z</time></trkpt>
        <trkpt lat="29.65493" lon="104.656831"><ele>782.49414</ele><time>2026-03-27T18:23:11.000Z</time></trkpt>
        <trkpt lat="29.654886" lon="104.656788"><ele>783.4354</ele><time>2026-03-27T18:23:16.000Z</time></trkpt>
        <trkpt lat="29.654867" lon="104.65674"><ele>783.9429</ele><time>2026-03-27T18:23:20.000Z</time></trkpt>
        <trkpt lat="29.654836" lon="104.656703"><ele>784.7509</ele><time>2026-03-27T18:23:24.000Z</time></trkpt>
        <trkpt lat="29.654799" lon="104.656652"><ele>786.1534</ele><time>2026-03-27T18:23:34.000Z</time></trkpt>
        <trkpt lat="29.654761" lon="104.656616"><ele>785.84576</ele><time>2026-03-27T18:23:42.000Z</time></trkpt>
        <trkpt lat="29.654739" lon="104.65658"><ele>786.03534</ele><time>2026-03-27T18:23:45.000Z</time></trkpt>
        <trkpt lat="29.654715" lon="104.65653"><ele>786.69147</ele><time>2026-03-27T18:23:49.000Z</time></trkpt>
        <trkpt lat="29.654688" lon="104.656462"><ele>788.8051</ele><time>2026-03-27T18:23:57.000Z</time></trkpt>
        <trkpt lat="29.654684" lon="104.656401"><ele>788.48376</ele><time>2026-03-27T18:24:06.000Z</time></trkpt>
        <trkpt lat="29.654692" lon="104.656355"><ele>788.727</ele><time>2026-03-27T18:24:10.000Z</time></trkpt>
        <trkpt lat="29.654691" lon="104.656293"><ele>788.54034</ele><time>2026-03-27T18:24:18.000Z</time></trkpt>
        <trkpt lat="29.654683" lon="104.656231"><ele>789.3781</ele><time>2026-03-27T18:24:26.000Z</time></trkpt>
        <trkpt lat="29.654679" lon="104.656182"><ele>789.2974</ele><time>2026-03-27T18:24:31.000Z</time></trkpt>
        <trkpt lat="29.65467" lon="104.656124"><ele>788.9092</ele><time>2026-03-27T18:24:36.000Z</time></trkpt>
        <trkpt lat="29.654649" lon="104.656067"><ele>788.59186</ele><time>2026-03-27T18:24:41.000Z</time></trkpt>
        <trkpt lat="29.654603" lon="104.656038"><ele>788.7204</ele><time>2026-03-27T18:24:46.000Z</time></trkpt>
        <trkpt lat="29.654555" lon="104.656016"><ele>788.73895</ele><time>2026-03-27T18:24:52.000Z</time></trkpt>
        <trkpt lat="29.654533" lon="104.655974"><ele>788.4051</ele><time>2026-03-27T18:24:56.000Z</time></trkpt>
        <trkpt lat="29.654507" lon="104.655927"><ele>788.03613</ele><time>2026-03-27T18:25:01.000Z</time></trkpt>
        <trkpt lat="29.654484" lon="104.655867"><ele>787.9091</ele><time>2026-03-27T18:25:07.000Z</time></trkpt>
        <trkpt lat="29.654475" lon="104.655818"><ele>787.55206</ele><time>2026-03-27T18:25:11.000Z</time></trkpt>
        <trkpt lat="29.654479" lon="104.655755"><ele>787.0294</ele><time>2026-03-27T18:25:16.000Z</time></trkpt>
        <trkpt lat="29.654498" lon="104.655689"><ele>787.4157</ele><time>2026-03-27T18:25:22.000Z</time></trkpt>
        <trkpt lat="29.654529" lon="104.655643"><ele>787.0396</ele><time>2026-03-27T18:25:27.000Z</time></trkpt>
        <trkpt lat="29.654552" lon="104.655595"><ele>786.1918</ele><time>2026-03-27T18:25:32.000Z</time></trkpt>
        <trkpt lat="29.654586" lon="104.655568"><ele>785.7737</ele><time>2026-03-27T18:25:36.000Z</time></trkpt>
        <trkpt lat="29.65462" lon="104.655529"><ele>785.028</ele><time>2026-03-27T18:25:41.000Z</time></trkpt>
        <trkpt lat="29.654644" lon="104.655475"><ele>783.467</ele><time>2026-03-27T18:25:46.000Z</time></trkpt>
        <trkpt lat="29.654642" lon="104.65542"><ele>781.8661</ele><time>2026-03-27T18:25:51.000Z</time></trkpt>
        <trkpt lat="29.65461" lon="104.655371"><ele>782.2961</ele><time>2026-03-27T18:25:56.000Z</time></trkpt>
        <trkpt lat="29.654575" lon="104.655327"><ele>783.155</ele><time>2026-03-27T18:26:02.000Z</time></trkpt>
        <trkpt lat="29.654547" lon="104.655284"><ele>784.4743</ele><time>2026-03-27T18:26:06.000Z</time></trkpt>
        <trkpt lat="29.65451" lon="104.655235"><ele>786.5441</ele><time>2026-03-27T18:26:12.000Z</time></trkpt>
        <trkpt lat="29.654465" lon="104.655206"><ele>788.8677</ele><time>2026-03-27T18:26:17.000Z</time></trkpt>
        <trkpt lat="29.654419" lon="104.655178"><ele>790.6481</ele><time>2026-03-27T18:26:22.000Z</time></trkpt>
        <trkpt lat="29.654389" lon="104.655136"><ele>792.218</ele><time>2026-03-27T18:26:27.000Z</time></trkpt>
        <trkpt lat="29.654376" lon="104.655066"><ele>792.70776</ele><time>2026-03-27T18:26:33.000Z</time></trkpt>
        <trkpt lat="29.654379" lon="104.655002"><ele>792.53424</ele><time>2026-03-27T18:26:37.000Z</time></trkpt>
        <trkpt lat="29.65439" lon="104.654935"><ele>792.0631</ele><time>2026-03-27T18:26:41.000Z</time></trkpt>
        <trkpt lat="29.654403" lon="104.654863"><ele>790.68665</ele><time>2026-03-27T18:26:46.000Z</time></trkpt>
        <trkpt lat="29.654429" lon="104.654821"><ele>789.43097</ele><time>2026-03-27T18:26:50.000Z</time></trkpt>
        <trkpt lat="29.654456" lon="104.654771"><ele>788.0803</ele><time>2026-03-27T18:26:54.000Z</time></trkpt>
        <trkpt lat="29.654461" lon="104.654718"><ele>785.5775</ele><time>2026-03-27T18:27:00.000Z</time></trkpt>
        <trkpt lat="29.654453" lon="104.65467"><ele>784.8043</ele><time>2026-03-27T18:27:05.000Z</time></trkpt>
        <trkpt lat="29.654421" lon="104.654625"><ele>784.5422</ele><time>2026-03-27T18:27:10.000Z</time></trkpt>
        <trkpt lat="29.654393" lon="104.654572"><ele>784.64453</ele><time>2026-03-27T18:27:15.000Z</time></trkpt>
        <trkpt lat="29.654358" lon="104.654529"><ele>785.2942</ele><time>2026-03-27T18:27:20.000Z</time></trkpt>
        <trkpt lat="29.65431" lon="104.65449"><ele>786.18945</ele><time>2026-03-27T18:27:26.000Z</time></trkpt>
        <trkpt lat="29.654281" lon="104.654454"><ele>786.1144</ele><time>2026-03-27T18:27:30.000Z</time></trkpt>
        <trkpt lat="29.654246" lon="104.654409"><ele>785.8884</ele><time>2026-03-27T18:27:37.000Z</time></trkpt>
        <trkpt lat="29.654212" lon="104.654368"><ele>786.17334</ele><time>2026-03-27T18:27:42.000Z</time></trkpt>
        <trkpt lat="29.654177" lon="104.65433"><ele>787.15125</ele><time>2026-03-27T18:27:47.000Z</time></trkpt>
        <trkpt lat="29.654135" lon="104.6543"><ele>788.54865</ele><time>2026-03-27T18:27:52.000Z</time></trkpt>
        <trkpt lat="29.654093" lon="104.654261"><ele>789.11005</ele><time>2026-03-27T18:28:00.000Z</time></trkpt>
        <trkpt lat="29.65407" lon="104.654225"><ele>789.4258</ele><time>2026-03-27T18:28:04.000Z</time></trkpt>
        <trkpt lat="29.654038" lon="104.654184"><ele>789.8787</ele><time>2026-03-27T18:28:10.000Z</time></trkpt>
        <trkpt lat="29.654009" lon="104.654145"><ele>790.5553</ele><time>2026-03-27T18:28:14.000Z</time></trkpt>
        <trkpt lat="29.65398" lon="104.654103"><ele>790.69885</ele><time>2026-03-27T18:28:18.000Z</time></trkpt>
        <trkpt lat="29.653948" lon="104.654052"><ele>790.68176</ele><time>2026-03-27T18:28:23.000Z</time></trkpt>
        <trkpt lat="29.653911" lon="104.654009"><ele>790.4507</ele><time>2026-03-27T18:28:28.000Z</time></trkpt>
        <trkpt lat="29.65388" lon="104.65397"><ele>790.178</ele><time>2026-03-27T18:28:32.000Z</time></trkpt>
        <trkpt lat="29.653858" lon="104.653924"><ele>789.6684</ele><time>2026-03-27T18:28:36.000Z</time></trkpt>
        <trkpt lat="29.653833" lon="104.653875"><ele>789.1527</ele><time>2026-03-27T18:28:40.000Z</time></trkpt>
        <trkpt lat="29.653821" lon="104.65381"><ele>789.25244</ele><time>2026-03-27T18:28:45.000Z</time></trkpt>
        <trkpt lat="29.65381" lon="104.653755"><ele>789.79895</ele><time>2026-03-27T18:28:49.000Z</time></trkpt>
        <trkpt lat="29.653794" lon="104.653697"><ele>790.3833</ele><time>2026-03-27T18:28:54.000Z</time></trkpt>
        <trkpt lat="29.653787" lon="104.653637"><ele>790.67285</ele><time>2026-03-27T18:29:15.000Z</time></trkpt>
        <trkpt lat="29.653745" lon="104.653625"><ele>791.436</ele><time>2026-03-27T18:29:21.000Z</time></trkpt>
        <trkpt lat="29.653696" lon="104.653599"><ele>792.17993</ele><time>2026-03-27T18:29:27.000Z</time></trkpt>
        <trkpt lat="29.653654" lon="104.653568"><ele>792.69415</ele><time>2026-03-27T18:29:32.000Z</time></trkpt>
        <trkpt lat="29.653612" lon="104.653539"><ele>793.2297</ele><time>2026-03-27T18:29:37.000Z</time></trkpt>
        <trkpt lat="29.653568" lon="104.653511"><ele>793.84045</ele><time>2026-03-27T18:29:42.000Z</time></trkpt>
        <trkpt lat="29.653524" lon="104.653481"><ele>794.3125</ele><time>2026-03-27T18:29:47.000Z</time></trkpt>
        <trkpt lat="29.653479" lon="104.653446"><ele>793.11646</ele><time>2026-03-27T18:29:53.000Z</time></trkpt>
        <trkpt lat="29.653431" lon="104.653419"><ele>792.6876</ele><time>2026-03-27T18:29:59.000Z</time></trkpt>
        <trkpt lat="29.653401" lon="104.653383"><ele>792.39355</ele><time>2026-03-27T18:30:04.000Z</time></trkpt>
        <trkpt lat="29.653381" lon="104.653336"><ele>792.4852</ele><time>2026-03-27T18:30:09.000Z</time></trkpt>
        <trkpt lat="29.653361" lon="104.653284"><ele>792.63495</ele><time>2026-03-27T18:30:15.000Z</time></trkpt>
        <trkpt lat="29.653334" lon="104.653227"><ele>793.4901</ele><time>2026-03-27T18:30:20.000Z</time></trkpt>
        <trkpt lat="29.653309" lon="104.65317"><ele>793.7091</ele><time>2026-03-27T18:30:25.000Z</time></trkpt>
        <trkpt lat="29.653288" lon="104.653124"><ele>793.4963</ele><time>2026-03-27T18:30:29.000Z</time></trkpt>
        <trkpt lat="29.653269" lon="104.653075"><ele>793.62024</ele><time>2026-03-27T18:30:33.000Z</time></trkpt>
        <trkpt lat="29.653246" lon="104.653015"><ele>793.5891</ele><time>2026-03-27T18:30:40.000Z</time></trkpt>
        <trkpt lat="29.653224" lon="104.65297"><ele>793.9908</ele><time>2026-03-27T18:30:45.000Z</time></trkpt>
        <trkpt lat="29.653189" lon="104.652927"><ele>794.6306</ele><time>2026-03-27T18:30:50.000Z</time></trkpt>
        <trkpt lat="29.653152" lon="104.652883"><ele>794.58276</ele><time>2026-03-27T18:30:57.000Z</time></trkpt>
        <trkpt lat="29.653118" lon="104.652842"><ele>794.20233</ele><time>2026-03-27T18:31:01.000Z</time></trkpt>
        <trkpt lat="29.653092" lon="104.652802"><ele>793.8018</ele><time>2026-03-27T18:31:05.000Z</time></trkpt>
        <trkpt lat="29.653063" lon="104.652761"><ele>794.0118</ele><time>2026-03-27T18:31:09.000Z</time></trkpt>
        <trkpt lat="29.653029" lon="104.652714"><ele>794.573</ele><time>2026-03-27T18:31:13.000Z</time></trkpt>
        <trkpt lat="29.653004" lon="104.652663"><ele>794.9879</ele><time>2026-03-27T18:31:17.000Z</time></trkpt>
        <trkpt lat="29.652981" lon="104.652606"><ele>795.2104</ele><time>2026-03-27T18:31:22.000Z</time></trkpt>
        <trkpt lat="29.65295" lon="104.652558"><ele>795.08105</ele><time>2026-03-27T18:31:27.000Z</time></trkpt>
        <trkpt lat="29.652973" lon="104.65261"><ele>791.94653</ele><time>2026-03-27T18:32:51.000Z</time></trkpt>
        <trkpt lat="29.65299" lon="104.652667"><ele>791.28</ele><time>2026-03-27T18:33:00.000Z</time></trkpt>
        <trkpt lat="29.653001" lon="104.65271"><ele>790.5183</ele><time>2026-03-27T18:33:04.000Z</time></trkpt>
        <trkpt lat="29.653028" lon="104.652754"><ele>790.16956</ele><time>2026-03-27T18:33:09.000Z</time></trkpt>
        <trkpt lat="29.653077" lon="104.652811"><ele>789.744</ele><time>2026-03-27T18:33:19.000Z</time></trkpt>
        <trkpt lat="29.653109" lon="104.652858"><ele>789.5018</ele><time>2026-03-27T18:33:26.000Z</time></trkpt>
        <trkpt lat="29.65314" lon="104.652904"><ele>789.5523</ele><time>2026-03-27T18:33:31.000Z</time></trkpt>
        <trkpt lat="29.653176" lon="104.652944"><ele>789.4396</ele><time>2026-03-27T18:33:35.000Z</time></trkpt>
        <trkpt lat="29.653211" lon="104.652995"><ele>789.5753</ele><time>2026-03-27T18:33:39.000Z</time></trkpt>
        <trkpt lat="29.653238" lon="104.653054"><ele>789.66876</ele><time>2026-03-27T18:33:43.000Z</time></trkpt>
        <trkpt lat="29.653261" lon="104.653114"><ele>789.6405</ele><time>2026-03-27T18:33:47.000Z</time></trkpt>
        <trkpt lat="29.653288" lon="104.653174"><ele>790.0283</ele><time>2026-03-27T18:33:51.000Z</time></trkpt>
        <trkpt lat="29.653313" lon="104.653234"><ele>790.274</ele><time>2026-03-27T18:33:55.000Z</time></trkpt>
        <trkpt lat="29.653344" lon="104.653289"><ele>790.5858</ele><time>2026-03-27T18:33:59.000Z</time></trkpt>
        <trkpt lat="29.65337" lon="104.653343"><ele>790.9528</ele><time>2026-03-27T18:34:03.000Z</time></trkpt>
        <trkpt lat="29.653404" lon="104.653396"><ele>789.64124</ele><time>2026-03-27T18:34:41.000Z</time></trkpt>
        <trkpt lat="29.653427" lon="104.653403"><ele>789.18646</ele><time>2026-03-27T18:34:44.000Z</time></trkpt>
        <trkpt lat="29.653471" lon="104.653431"><ele>788.70874</ele><time>2026-03-27T18:34:48.000Z</time></trkpt>
        <trkpt lat="29.653533" lon="104.653483"><ele>789.1981</ele><time>2026-03-27T18:34:58.000Z</time></trkpt>
        <trkpt lat="29.653575" lon="104.653514"><ele>789.32556</ele><time>2026-03-27T18:35:02.000Z</time></trkpt>
        <trkpt lat="29.653612" lon="104.653541"><ele>789.4324</ele><time>2026-03-27T18:35:05.000Z</time></trkpt>
        <trkpt lat="29.653661" lon="104.653577"><ele>789.03784</ele><time>2026-03-27T18:35:09.000Z</time></trkpt>
        <trkpt lat="29.653708" lon="104.653601"><ele>789.3172</ele><time>2026-03-27T18:35:13.000Z</time></trkpt>
        <trkpt lat="29.653759" lon="104.653624"><ele>789.7934</ele><time>2026-03-27T18:35:16.000Z</time></trkpt>
        <trkpt lat="29.653729" lon="104.653612"><ele>792.4382</ele><time>2026-03-27T18:35:28.000Z</time></trkpt>
        <trkpt lat="29.653679" lon="104.653579"><ele>792.9957</ele><time>2026-03-27T18:35:33.000Z</time></trkpt>
        <trkpt lat="29.653639" lon="104.653552"><ele>793.14087</ele><time>2026-03-27T18:35:37.000Z</time></trkpt>
        <trkpt lat="29.653594" lon="104.653518"><ele>792.91876</ele><time>2026-03-27T18:35:45.000Z</time></trkpt>
        <trkpt lat="29.653558" lon="104.653492"><ele>792.9259</ele><time>2026-03-27T18:35:49.000Z</time></trkpt>
        <trkpt lat="29.65351" lon="104.653463"><ele>792.8723</ele><time>2026-03-27T18:35:54.000Z</time></trkpt>
        <trkpt lat="29.65347" lon="104.653437"><ele>792.2262</ele><time>2026-03-27T18:35:58.000Z</time></trkpt>
        <trkpt lat="29.653416" lon="104.653407"><ele>791.1889</ele><time>2026-03-27T18:36:03.000Z</time></trkpt>
        <trkpt lat="29.653373" lon="104.653363"><ele>790.7297</ele><time>2026-03-27T18:36:09.000Z</time></trkpt>
        <trkpt lat="29.65335" lon="104.653305"><ele>790.6857</ele><time>2026-03-27T18:36:16.000Z</time></trkpt>
        <trkpt lat="29.653334" lon="104.65326"><ele>791.05914</ele><time>2026-03-27T18:36:20.000Z</time></trkpt>
        <trkpt lat="29.653314" lon="104.653209"><ele>791.4065</ele><time>2026-03-27T18:36:24.000Z</time></trkpt>
        <trkpt lat="29.653287" lon="104.653154"><ele>791.8779</ele><time>2026-03-27T18:36:28.000Z</time></trkpt>
        <trkpt lat="29.653261" lon="104.653098"><ele>792.06726</ele><time>2026-03-27T18:36:33.000Z</time></trkpt>
        <trkpt lat="29.653239" lon="104.653045"><ele>792.2962</ele><time>2026-03-27T18:36:37.000Z</time></trkpt>
        <trkpt lat="29.65322" lon="104.652988"><ele>792.4359</ele><time>2026-03-27T18:36:41.000Z</time></trkpt>
        <trkpt lat="29.653193" lon="104.652941"><ele>792.73206</ele><time>2026-03-27T18:36:45.000Z</time></trkpt>
        <trkpt lat="29.65316" lon="104.652904"><ele>792.6503</ele><time>2026-03-27T18:36:49.000Z</time></trkpt>
        <trkpt lat="29.653121" lon="104.652864"><ele>792.219</ele><time>2026-03-27T18:36:53.000Z</time></trkpt>
        <trkpt lat="29.653088" lon="104.65282"><ele>791.77936</ele><time>2026-03-27T18:36:57.000Z</time></trkpt>
        <trkpt lat="29.653056" lon="104.652773"><ele>792.00854</ele><time>2026-03-27T18:37:01.000Z</time></trkpt>
        <trkpt lat="29.653024" lon="104.652732"><ele>792.45795</ele><time>2026-03-27T18:37:05.000Z</time></trkpt>
        <trkpt lat="29.652995" lon="104.65269"><ele>792.64197</ele><time>2026-03-27T18:37:09.000Z</time></trkpt>
        <trkpt lat="29.652975" lon="104.652642"><ele>792.6083</ele><time>2026-03-27T18:37:13.000Z</time></trkpt>
        <trkpt lat="29.652957" lon="104.652593"><ele>792.56964</ele><time>2026-03-27T18:37:17.000Z</time></trkpt>
        <trkpt lat="29.652922" lon="104.652541"><ele>792.1954</ele><time>2026-03-27T18:37:21.000Z</time></trkpt>
        <trkpt lat="29.652879" lon="104.652498"><ele>791.6748</ele><time>2026-03-27T18:37:32.000Z</time></trkpt>
        <trkpt lat="29.652853" lon="104.652471"><ele>791.8323</ele><time>2026-03-27T18:37:36.000Z</time></trkpt>
        <trkpt lat="29.652819" lon="104.652426"><ele>791.5309</ele><time>2026-03-27T18:37:41.000Z</time></trkpt>
        <trkpt lat="29.652785" lon="104.652382"><ele>791.69543</ele><time>2026-03-27T18:37:45.000Z</time></trkpt>
        <trkpt lat="29.652756" lon="104.652331"><ele>792.21515</ele><time>2026-03-27T18:37:49.000Z</time></trkpt>
        <trkpt lat="29.652733" lon="104.65228"><ele>792.8815</ele><time>2026-03-27T18:37:53.000Z</time></trkpt>
        <trkpt lat="29.652705" lon="104.652225"><ele>794.19556</ele><time>2026-03-27T18:37:58.000Z</time></trkpt>
        <trkpt lat="29.652684" lon="104.652173"><ele>794.2332</ele><time>2026-03-27T18:38:03.000Z</time></trkpt>
        <trkpt lat="29.652665" lon="104.65212"><ele>794.2918</ele><time>2026-03-27T18:38:07.000Z</time></trkpt>
        <trkpt lat="29.652656" lon="104.652065"><ele>794.894</ele><time>2026-03-27T18:38:11.000Z</time></trkpt>
        <trkpt lat="29.652648" lon="104.652007"><ele>795.406</ele><time>2026-03-27T18:38:15.000Z</time></trkpt>
        <trkpt lat="29.652635" lon="104.651954"><ele>796.41315</ele><time>2026-03-27T18:38:19.000Z</time></trkpt>
        <trkpt lat="29.652616" lon="104.6519"><ele>796.942</ele><time>2026-03-27T18:38:23.000Z</time></trkpt>
        <trkpt lat="29.65259" lon="104.651843"><ele>797.3094</ele><time>2026-03-27T18:38:27.000Z</time></trkpt>
        <trkpt lat="29.652553" lon="104.651794"><ele>797.7601</ele><time>2026-03-27T18:38:31.000Z</time></trkpt>
        <trkpt lat="29.652507" lon="104.65176"><ele>798.01776</ele><time>2026-03-27T18:38:35.000Z</time></trkpt>
        <trkpt lat="29.652458" lon="104.651741"><ele>797.90765</ele><time>2026-03-27T18:38:40.000Z</time></trkpt>
        <trkpt lat="29.652406" lon="104.651725"><ele>797.48065</ele><time>2026-03-27T18:38:44.000Z</time></trkpt>
        <trkpt lat="29.652359" lon="104.651697"><ele>796.7111</ele><time>2026-03-27T18:38:48.000Z</time></trkpt>
        <trkpt lat="29.652321" lon="104.651661"><ele>796.01117</ele><time>2026-03-27T18:38:52.000Z</time></trkpt>
        <trkpt lat="29.652294" lon="104.651616"><ele>795.611</ele><time>2026-03-27T18:38:56.000Z</time></trkpt>
        <trkpt lat="29.652277" lon="104.651554"><ele>795.3899</ele><time>2026-03-27T18:39:02.000Z</time></trkpt>
        <trkpt lat="29.652258" lon="104.651508"><ele>794.7187</ele><time>2026-03-27T18:39:06.000Z</time></trkpt>
        <trkpt lat="29.652226" lon="104.651462"><ele>794.3169</ele><time>2026-03-27T18:39:10.000Z</time></trkpt>
        <trkpt lat="29.652204" lon="104.651411"><ele>794.3962</ele><time>2026-03-27T18:39:14.000Z</time></trkpt>
        <trkpt lat="29.652175" lon="104.65136"><ele>794.7571</ele><time>2026-03-27T18:39:18.000Z</time></trkpt>
        <trkpt lat="29.652149" lon="104.651308"><ele>794.96295</ele><time>2026-03-27T18:39:22.000Z</time></trkpt>
        <trkpt lat="29.652124" lon="104.651257"><ele>795.21906</ele><time>2026-03-27T18:39:27.000Z</time></trkpt>
        <trkpt lat="29.652096" lon="104.651214"><ele>795.3481</ele><time>2026-03-27T18:39:30.000Z</time></trkpt>
        <trkpt lat="29.652065" lon="104.651173"><ele>795.67474</ele><time>2026-03-27T18:39:34.000Z</time></trkpt>
        <trkpt lat="29.652033" lon="104.651134"><ele>796.27466</ele><time>2026-03-27T18:39:38.000Z</time></trkpt>
        <trkpt lat="29.651994" lon="104.651085"><ele>796.507</ele><time>2026-03-27T18:39:44.000Z</time></trkpt>
        <trkpt lat="29.651976" lon="104.651034"><ele>795.8967</ele><time>2026-03-27T18:39:51.000Z</time></trkpt>
        <trkpt lat="29.651966" lon="104.65098"><ele>793.8412</ele><time>2026-03-27T18:40:00.000Z</time></trkpt>
        <trkpt lat="29.651956" lon="104.650927"><ele>791.9722</ele><time>2026-03-27T18:40:11.000Z</time></trkpt>
        <trkpt lat="29.651948" lon="104.650875"><ele>789.99255</ele><time>2026-03-27T18:40:23.000Z</time></trkpt>
        <trkpt lat="29.651943" lon="104.650821"><ele>788.5958</ele><time>2026-03-27T18:40:34.000Z</time></trkpt>
        <trkpt lat="29.651924" lon="104.650771"><ele>786.59393</ele><time>2026-03-27T18:40:57.000Z</time></trkpt>
        <trkpt lat="29.651922" lon="104.65072"><ele>784.0051</ele><time>2026-03-27T18:41:06.000Z</time></trkpt>
        <trkpt lat="29.65192" lon="104.650663"><ele>781.59686</ele><time>2026-03-27T18:41:13.000Z</time></trkpt>
        <trkpt lat="29.651911" lon="104.650606"><ele>778.52106</ele><time>2026-03-27T18:41:27.000Z</time></trkpt>
        <trkpt lat="29.651918" lon="104.650557"><ele>776.7428</ele><time>2026-03-27T18:41:35.000Z</time></trkpt>
        <trkpt lat="29.651906" lon="104.65049"><ele>773.80084</ele><time>2026-03-27T18:41:50.000Z</time></trkpt>
        <trkpt lat="29.651913" lon="104.650434"><ele>772.2489</ele><time>2026-03-27T18:41:59.000Z</time></trkpt>
        <trkpt lat="29.651924" lon="104.650376"><ele>772.98724</ele><time>2026-03-27T18:42:15.000Z</time></trkpt>
        <trkpt lat="29.651937" lon="104.650334"><ele>771.134</ele><time>2026-03-27T18:42:22.000Z</time></trkpt>
        <trkpt lat="29.651953" lon="104.650282"><ele>768.9264</ele><time>2026-03-27T18:42:29.000Z</time></trkpt>
        <trkpt lat="29.651963" lon="104.650226"><ele>766.953</ele><time>2026-03-27T18:42:36.000Z</time></trkpt>
        <trkpt lat="29.651972" lon="104.65017"><ele>764.9498</ele><time>2026-03-27T18:42:43.000Z</time></trkpt>
        <trkpt lat="29.651988" lon="104.650114"><ele>762.69135</ele><time>2026-03-27T18:42:52.000Z</time></trkpt>
        <trkpt lat="29.651993" lon="104.650059"><ele>760.01074</ele><time>2026-03-27T18:43:04.000Z</time></trkpt>
        <trkpt lat="29.652001" lon="104.650006"><ele>757.0967</ele><time>2026-03-27T18:43:16.000Z</time></trkpt>
        <trkpt lat="29.652011" lon="104.649954"><ele>755.3908</ele><time>2026-03-27T18:43:27.000Z</time></trkpt>
        <trkpt lat="29.652023" lon="104.649903"><ele>754.4741</ele><time>2026-03-27T18:43:37.000Z</time></trkpt>
        <trkpt lat="29.651999" lon="104.649857"><ele>752.2757</ele><time>2026-03-27T18:43:47.000Z</time></trkpt>
        <trkpt lat="29.651964" lon="104.649823"><ele>750.8732</ele><time>2026-03-27T18:43:56.000Z</time></trkpt>
        <trkpt lat="29.651923" lon="104.649789"><ele>748.73553</ele><time>2026-03-27T18:44:06.000Z</time></trkpt>
        <trkpt lat="29.651901" lon="104.64974"><ele>747.1386</ele><time>2026-03-27T18:44:19.000Z</time></trkpt>
        <trkpt lat="29.651894" lon="104.649688"><ele>745.8091</ele><time>2026-03-27T18:44:28.000Z</time></trkpt>
        <trkpt lat="29.651885" lon="104.649634"><ele>743.5605</ele><time>2026-03-27T18:44:37.000Z</time></trkpt>
        <trkpt lat="29.651874" lon="104.649584"><ele>742.15546</ele><time>2026-03-27T18:44:44.000Z</time></trkpt>
        <trkpt lat="29.651868" lon="104.649528"><ele>740.0129</ele><time>2026-03-27T18:44:56.000Z</time></trkpt>
        <trkpt lat="29.65185" lon="104.649487"><ele>738.7735</ele><time>2026-03-27T18:45:02.000Z</time></trkpt>
        <trkpt lat="29.651826" lon="104.649435"><ele>737.2341</ele><time>2026-03-27T18:45:11.000Z</time></trkpt>
        <trkpt lat="29.651803" lon="104.64939"><ele>733.8114</ele><time>2026-03-27T18:45:19.000Z</time></trkpt>
        <trkpt lat="29.65181" lon="104.649349"><ele>732.93384</ele><time>2026-03-27T18:45:22.000Z</time></trkpt>
        <trkpt lat="29.651827" lon="104.649305"><ele>732.3631</ele><time>2026-03-27T18:45:24.000Z</time></trkpt>
        <trkpt lat="29.651838" lon="104.649225"><ele>731.1117</ele><time>2026-03-27T18:45:30.000Z</time></trkpt>
        <trkpt lat="29.651828" lon="104.649159"><ele>729.41565</ele><time>2026-03-27T18:45:41.000Z</time></trkpt>
        <trkpt lat="29.651809" lon="104.649113"><ele>727.05646</ele><time>2026-03-27T18:45:48.000Z</time></trkpt>
        <trkpt lat="29.651799" lon="104.649062"><ele>725.0343</ele><time>2026-03-27T18:45:54.000Z</time></trkpt>
        <trkpt lat="29.651768" lon="104.649035"><ele>723.9892</ele><time>2026-03-27T18:45:58.000Z</time></trkpt>
        <trkpt lat="29.651733" lon="104.649006"><ele>724.1632</ele><time>2026-03-27T18:46:01.000Z</time></trkpt>
        <trkpt lat="29.651687" lon="104.648979"><ele>724.1113</ele><time>2026-03-27T18:46:05.000Z</time></trkpt>
        <trkpt lat="29.651721" lon="104.648966"><ele>726.3384</ele><time>2026-03-27T18:46:43.000Z</time></trkpt>
        <trkpt lat="29.651687" lon="104.649001"><ele>725.49414</ele><time>2026-03-27T18:48:02.000Z</time></trkpt>
        <trkpt lat="29.651736" lon="104.648988"><ele>725.3475</ele><time>2026-03-27T18:51:04.000Z</time></trkpt>
        <trkpt lat="29.651705" lon="104.64897"><ele>724.94916</ele><time>2026-03-27T18:51:15.000Z</time></trkpt>
        <trkpt lat="29.651676" lon="104.648994"><ele>724.7599</ele><time>2026-03-27T18:51:18.000Z</time></trkpt>
        <trkpt lat="29.65165" lon="104.649038"><ele>725.2244</ele><time>2026-03-27T18:51:21.000Z</time></trkpt>
        <trkpt lat="29.651629" lon="104.649091"><ele>725.7781</ele><time>2026-03-27T18:51:24.000Z</time></trkpt>
        <trkpt lat="29.6516" lon="104.649156"><ele>726.84625</ele><time>2026-03-27T18:51:28.000Z</time></trkpt>
        <trkpt lat="29.651576" lon="104.649233"><ele>727.2985</ele><time>2026-03-27T18:51:40.000Z</time></trkpt>
        <trkpt lat="29.651569" lon="104.649271"><ele>727.22943</ele><time>2026-03-27T18:51:44.000Z</time></trkpt>
        <trkpt lat="29.65156" lon="104.649328"><ele>727.2238</ele><time>2026-03-27T18:51:49.000Z</time></trkpt>
        <trkpt lat="29.651555" lon="104.649381"><ele>727.5609</ele><time>2026-03-27T18:51:53.000Z</time></trkpt>
        <trkpt lat="29.65155" lon="104.649441"><ele>727.9083</ele><time>2026-03-27T18:51:58.000Z</time></trkpt>
        <trkpt lat="29.651542" lon="104.649501"><ele>727.7273</ele><time>2026-03-27T18:52:09.000Z</time></trkpt>
        <trkpt lat="29.651531" lon="104.649544"><ele>728.1649</ele><time>2026-03-27T18:52:13.000Z</time></trkpt>
        <trkpt lat="29.651511" lon="104.649604"><ele>729.08624</ele><time>2026-03-27T18:52:17.000Z</time></trkpt>
        <trkpt lat="29.651487" lon="104.64965"><ele>729.5161</ele><time>2026-03-27T18:52:20.000Z</time></trkpt>
        <trkpt lat="29.651449" lon="104.6497"><ele>729.70886</ele><time>2026-03-27T18:52:24.000Z</time></trkpt>
        <trkpt lat="29.651401" lon="104.649735"><ele>729.3624</ele><time>2026-03-27T18:52:28.000Z</time></trkpt>
        <trkpt lat="29.651354" lon="104.649749"><ele>728.69275</ele><time>2026-03-27T18:52:31.000Z</time></trkpt>
        <trkpt lat="29.651303" lon="104.649758"><ele>727.99023</ele><time>2026-03-27T18:52:34.000Z</time></trkpt>
        <trkpt lat="29.651242" lon="104.649762"><ele>727.0904</ele><time>2026-03-27T18:52:38.000Z</time></trkpt>
        <trkpt lat="29.651179" lon="104.649768"><ele>726.8575</ele><time>2026-03-27T18:52:43.000Z</time></trkpt>
        <trkpt lat="29.651141" lon="104.649795"><ele>727.08685</ele><time>2026-03-27T18:52:47.000Z</time></trkpt>
        <trkpt lat="29.651132" lon="104.649844"><ele>727.47723</ele><time>2026-03-27T18:52:51.000Z</time></trkpt>
        <trkpt lat="29.651131" lon="104.649894"><ele>727.9243</ele><time>2026-03-27T18:52:54.000Z</time></trkpt>
        <trkpt lat="29.651122" lon="104.649946"><ele>728.43915</ele><time>2026-03-27T18:52:57.000Z</time></trkpt>
        <trkpt lat="29.651097" lon="104.649989"><ele>728.88995</ele><time>2026-03-27T18:53:00.000Z</time></trkpt>
        <trkpt lat="29.651062" lon="104.650024"><ele>729.3154</ele><time>2026-03-27T18:53:03.000Z</time></trkpt>
        <trkpt lat="29.651006" lon="104.650054"><ele>729.5621</ele><time>2026-03-27T18:53:07.000Z</time></trkpt>
        <trkpt lat="29.650946" lon="104.650073"><ele>729.45044</ele><time>2026-03-27T18:53:11.000Z</time></trkpt>
        <trkpt lat="29.6509" lon="104.650087"><ele>729.329</ele><time>2026-03-27T18:53:14.000Z</time></trkpt>
        <trkpt lat="29.650846" lon="104.650115"><ele>729.07135</ele><time>2026-03-27T18:53:18.000Z</time></trkpt>
        <trkpt lat="29.650807" lon="104.650155"><ele>728.8105</ele><time>2026-03-27T18:53:23.000Z</time></trkpt>
        <trkpt lat="29.650764" lon="104.6502"><ele>728.1274</ele><time>2026-03-27T18:53:39.000Z</time></trkpt>
        <trkpt lat="29.650733" lon="104.650166"><ele>726.8051</ele><time>2026-03-27T18:53:57.000Z</time></trkpt>
        <trkpt lat="29.650692" lon="104.650143"><ele>726.63586</ele><time>2026-03-27T18:54:02.000Z</time></trkpt>
        <trkpt lat="29.650637" lon="104.650124"><ele>726.6026</ele><time>2026-03-27T18:54:08.000Z</time></trkpt>
        <trkpt lat="29.650591" lon="104.650107"><ele>726.5743</ele><time>2026-03-27T18:54:13.000Z</time></trkpt>
        <trkpt lat="29.650537" lon="104.650087"><ele>726.8608</ele><time>2026-03-27T18:54:19.000Z</time></trkpt>
        <trkpt lat="29.65049" lon="104.650062"><ele>726.12177</ele><time>2026-03-27T18:54:26.000Z</time></trkpt>
        <trkpt lat="29.650459" lon="104.650018"><ele>725.6018</ele><time>2026-03-27T18:54:31.000Z</time></trkpt>
        <trkpt lat="29.650427" lon="104.649974"><ele>724.85724</ele><time>2026-03-27T18:54:36.000Z</time></trkpt>
        <trkpt lat="29.650399" lon="104.64993"><ele>724.0963</ele><time>2026-03-27T18:54:40.000Z</time></trkpt>
        <trkpt lat="29.650362" lon="104.649893"><ele>722.89246</ele><time>2026-03-27T18:54:44.000Z</time></trkpt>
        <trkpt lat="29.650339" lon="104.649841"><ele>722.0245</ele><time>2026-03-27T18:54:49.000Z</time></trkpt>
        <trkpt lat="29.650347" lon="104.649785"><ele>721.1684</ele><time>2026-03-27T18:54:54.000Z</time></trkpt>
        <trkpt lat="29.650369" lon="104.649732"><ele>720.5348</ele><time>2026-03-27T18:55:00.000Z</time></trkpt>
        <trkpt lat="29.650392" lon="104.649697"><ele>720.52606</ele><time>2026-03-27T18:55:03.000Z</time></trkpt>
        <trkpt lat="29.650406" lon="104.649628"><ele>719.40485</ele><time>2026-03-27T18:55:13.000Z</time></trkpt>
        <trkpt lat="29.650377" lon="104.649586"><ele>719.29443</ele><time>2026-03-27T18:55:20.000Z</time></trkpt>
        <trkpt lat="29.650353" lon="104.649538"><ele>719.14825</ele><time>2026-03-27T18:55:26.000Z</time></trkpt>
        <trkpt lat="29.650329" lon="104.649481"><ele>718.8546</ele><time>2026-03-27T18:55:31.000Z</time></trkpt>
        <trkpt lat="29.65031" lon="104.649432"><ele>718.4184</ele><time>2026-03-27T18:55:35.000Z</time></trkpt>
        <trkpt lat="29.650283" lon="104.649377"><ele>717.72986</ele><time>2026-03-27T18:55:40.000Z</time></trkpt>
        <trkpt lat="29.650241" lon="104.649333"><ele>717.22156</ele><time>2026-03-27T18:55:46.000Z</time></trkpt>
        <trkpt lat="29.650196" lon="104.649289"><ele>716.0602</ele><time>2026-03-27T18:55:56.000Z</time></trkpt>
        <trkpt lat="29.650165" lon="104.649259"><ele>715.7787</ele><time>2026-03-27T18:56:00.000Z</time></trkpt>
        <trkpt lat="29.650129" lon="104.649211"><ele>715.26624</ele><time>2026-03-27T18:56:06.000Z</time></trkpt>
        <trkpt lat="29.650091" lon="104.649169"><ele>714.1941</ele><time>2026-03-27T18:56:13.000Z</time></trkpt>
        <trkpt lat="29.650057" lon="104.649135"><ele>713.36224</ele><time>2026-03-27T18:56:21.000Z</time></trkpt>
        <trkpt lat="29.650028" lon="104.649091"><ele>712.82275</ele><time>2026-03-27T18:56:27.000Z</time></trkpt>
        <trkpt lat="29.650024" lon="104.649033"><ele>712.1103</ele><time>2026-03-27T18:56:34.000Z</time></trkpt>
        <trkpt lat="29.650032" lon="104.648976"><ele>711.6648</ele><time>2026-03-27T18:56:42.000Z</time></trkpt>
        <trkpt lat="29.65003" lon="104.648925"><ele>711.0409</ele><time>2026-03-27T18:56:46.000Z</time></trkpt>
        <trkpt lat="29.65002" lon="104.64887"><ele>710.7349</ele><time>2026-03-27T18:56:50.000Z</time></trkpt>
        <trkpt lat="29.650007" lon="104.648812"><ele>710.02264</ele><time>2026-03-27T18:56:55.000Z</time></trkpt>
        <trkpt lat="29.649983" lon="104.648759"><ele>709.359</ele><time>2026-03-27T18:57:00.000Z</time></trkpt>
        <trkpt lat="29.649957" lon="104.648716"><ele>708.96216</ele><time>2026-03-27T18:57:04.000Z</time></trkpt>
        <trkpt lat="29.649918" lon="104.648666"><ele>708.67615</ele><time>2026-03-27T18:57:10.000Z</time></trkpt>
        <trkpt lat="29.649883" lon="104.648633"><ele>708.8871</ele><time>2026-03-27T18:57:14.000Z</time></trkpt>
        <trkpt lat="29.649839" lon="104.648597"><ele>709.19556</ele><time>2026-03-27T18:57:18.000Z</time></trkpt>
        <trkpt lat="29.649791" lon="104.64857"><ele>709.51434</ele><time>2026-03-27T18:57:22.000Z</time></trkpt>
        <trkpt lat="29.649743" lon="104.64855"><ele>709.8649</ele><time>2026-03-27T18:57:26.000Z</time></trkpt>
        <trkpt lat="29.649694" lon="104.648547"><ele>710.51166</ele><time>2026-03-27T18:57:30.000Z</time></trkpt>
        <trkpt lat="29.649647" lon="104.648542"><ele>711.44543</ele><time>2026-03-27T18:57:35.000Z</time></trkpt>
        <trkpt lat="29.649637" lon="104.648502"><ele>713.2144</ele><time>2026-03-27T18:57:41.000Z</time></trkpt>
        <trkpt lat="29.649632" lon="104.648439"><ele>715.2494</ele><time>2026-03-27T18:57:50.000Z</time></trkpt>
        <trkpt lat="29.649628" lon="104.648377"><ele>716.2589</ele><time>2026-03-27T18:58:05.000Z</time></trkpt>
        <trkpt lat="29.64961" lon="104.648333"><ele>717.06177</ele><time>2026-03-27T18:58:11.000Z</time></trkpt>
        <trkpt lat="29.649607" lon="104.64827"><ele>718.2067</ele><time>2026-03-27T18:58:18.000Z</time></trkpt>
        <trkpt lat="29.6496" lon="104.648213"><ele>720.4887</ele><time>2026-03-27T18:58:29.000Z</time></trkpt>
        <trkpt lat="29.649564" lon="104.648199"><ele>720.8103</ele><time>2026-03-27T18:58:34.000Z</time></trkpt>
        <trkpt lat="29.649512" lon="104.648177"><ele>722.1721</ele><time>2026-03-27T18:58:40.000Z</time></trkpt>
        <trkpt lat="29.649457" lon="104.64815"><ele>723.88983</ele><time>2026-03-27T18:58:47.000Z</time></trkpt>
        <trkpt lat="29.649416" lon="104.648126"><ele>724.45685</ele><time>2026-03-27T18:58:51.000Z</time></trkpt>
        <trkpt lat="29.649382" lon="104.648087"><ele>724.5821</ele><time>2026-03-27T18:58:55.000Z</time></trkpt>
        <trkpt lat="29.649357" lon="104.648028"><ele>724.8315</ele><time>2026-03-27T18:59:00.000Z</time></trkpt>
        <trkpt lat="29.649343" lon="104.647968"><ele>725.46234</ele><time>2026-03-27T18:59:05.000Z</time></trkpt>
        <trkpt lat="29.649317" lon="104.647905"><ele>726.3703</ele><time>2026-03-27T18:59:16.000Z</time></trkpt>
        <trkpt lat="29.649278" lon="104.647895"><ele>725.84937</ele><time>2026-03-27T18:59:21.000Z</time></trkpt>
        <trkpt lat="29.649233" lon="104.647896"><ele>726.2251</ele><time>2026-03-27T18:59:25.000Z</time></trkpt>
        <trkpt lat="29.649183" lon="104.647906"><ele>726.2553</ele><time>2026-03-27T18:59:29.000Z</time></trkpt>
        <trkpt lat="29.649131" lon="104.647912"><ele>726.39795</ele><time>2026-03-27T18:59:33.000Z</time></trkpt>
        <trkpt lat="29.649077" lon="104.647924"><ele>726.184</ele><time>2026-03-27T18:59:38.000Z</time></trkpt>
        <trkpt lat="29.649031" lon="104.647946"><ele>725.8938</ele><time>2026-03-27T18:59:42.000Z</time></trkpt>
        <trkpt lat="29.648996" lon="104.647986"><ele>725.5616</ele><time>2026-03-27T18:59:46.000Z</time></trkpt>
        <trkpt lat="29.648971" lon="104.648047"><ele>724.94385</ele><time>2026-03-27T18:59:51.000Z</time></trkpt>
        <trkpt lat="29.648947" lon="104.648095"><ele>724.60724</ele><time>2026-03-27T18:59:55.000Z</time></trkpt>
        <trkpt lat="29.648909" lon="104.648107"><ele>724.7132</ele><time>2026-03-27T18:59:59.000Z</time></trkpt>
        <trkpt lat="29.648892" lon="104.648063"><ele>725.1348</ele><time>2026-03-27T19:00:03.000Z</time></trkpt>
        <trkpt lat="29.648889" lon="104.648"><ele>725.70465</ele><time>2026-03-27T19:00:07.000Z</time></trkpt>
        <trkpt lat="29.648882" lon="104.647935"><ele>726.3437</ele><time>2026-03-27T19:00:11.000Z</time></trkpt>
        <trkpt lat="29.648846" lon="104.647884"><ele>726.0824</ele><time>2026-03-27T19:00:27.000Z</time></trkpt>
        <trkpt lat="29.648815" lon="104.647848"><ele>724.9951</ele><time>2026-03-27T19:00:31.000Z</time></trkpt>
        <trkpt lat="29.648783" lon="104.647794"><ele>724.2389</ele><time>2026-03-27T19:00:36.000Z</time></trkpt>
        <trkpt lat="29.648742" lon="104.647785"><ele>723.74207</ele><time>2026-03-27T19:00:40.000Z</time></trkpt>
        <trkpt lat="29.648699" lon="104.647804"><ele>723.3411</ele><time>2026-03-27T19:00:44.000Z</time></trkpt>
        <trkpt lat="29.648658" lon="104.647787"><ele>723.401</ele><time>2026-03-27T19:00:49.000Z</time></trkpt>
        <trkpt lat="29.648642" lon="104.64773"><ele>723.34796</ele><time>2026-03-27T19:00:55.000Z</time></trkpt>
        <trkpt lat="29.648627" lon="104.647665"><ele>723.7366</ele><time>2026-03-27T19:01:01.000Z</time></trkpt>
        <trkpt lat="29.648615" lon="104.6476"><ele>725.0533</ele><time>2026-03-27T19:01:28.000Z</time></trkpt>
        <trkpt lat="29.648592" lon="104.647569"><ele>726.0973</ele><time>2026-03-27T19:01:35.000Z</time></trkpt>
        <trkpt lat="29.648564" lon="104.647519"><ele>726.58246</ele><time>2026-03-27T19:01:40.000Z</time></trkpt>
        <trkpt lat="29.648523" lon="104.647479"><ele>726.5639</ele><time>2026-03-27T19:01:46.000Z</time></trkpt>
        <trkpt lat="29.648473" lon="104.647454"><ele>727.12555</ele><time>2026-03-27T19:01:51.000Z</time></trkpt>
        <trkpt lat="29.648421" lon="104.647445"><ele>727.71106</ele><time>2026-03-27T19:01:57.000Z</time></trkpt>
        <trkpt lat="29.648374" lon="104.647433"><ele>728.369</ele><time>2026-03-27T19:02:06.000Z</time></trkpt>
        <trkpt lat="29.648343" lon="104.647413"><ele>729.0556</ele><time>2026-03-27T19:02:10.000Z</time></trkpt>
        <trkpt lat="29.648305" lon="104.647387"><ele>728.76483</ele><time>2026-03-27T19:02:14.000Z</time></trkpt>
        <trkpt lat="29.648261" lon="104.64735"><ele>728.34863</ele><time>2026-03-27T19:02:20.000Z</time></trkpt>
        <trkpt lat="29.648225" lon="104.647312"><ele>727.839</ele><time>2026-03-27T19:02:25.000Z</time></trkpt>
        <trkpt lat="29.64821" lon="104.647258"><ele>727.8944</ele><time>2026-03-27T19:02:30.000Z</time></trkpt>
        <trkpt lat="29.648205" lon="104.647199"><ele>727.6148</ele><time>2026-03-27T19:02:34.000Z</time></trkpt>
        <trkpt lat="29.648201" lon="104.647141"><ele>727.5614</ele><time>2026-03-27T19:02:38.000Z</time></trkpt>
        <trkpt lat="29.648181" lon="104.647083"><ele>727.9257</ele><time>2026-03-27T19:02:41.000Z</time></trkpt>
        <trkpt lat="29.648145" lon="104.647036"><ele>728.17816</ele><time>2026-03-27T19:02:45.000Z</time></trkpt>
        <trkpt lat="29.648101" lon="104.646991"><ele>728.5829</ele><time>2026-03-27T19:02:49.000Z</time></trkpt>
        <trkpt lat="29.648061" lon="104.646953"><ele>728.7935</ele><time>2026-03-27T19:02:53.000Z</time></trkpt>
        <trkpt lat="29.64803" lon="104.646906"><ele>728.69336</ele><time>2026-03-27T19:02:57.000Z</time></trkpt>
        <trkpt lat="29.648004" lon="104.646848"><ele>728.2592</ele><time>2026-03-27T19:03:02.000Z</time></trkpt>
        <trkpt lat="29.647985" lon="104.646799"><ele>728.0443</ele><time>2026-03-27T19:03:06.000Z</time></trkpt>
        <trkpt lat="29.647963" lon="104.646748"><ele>728.18585</ele><time>2026-03-27T19:03:10.000Z</time></trkpt>
        <trkpt lat="29.647945" lon="104.646695"><ele>728.0101</ele><time>2026-03-27T19:03:14.000Z</time></trkpt>
        <trkpt lat="29.64794" lon="104.646632"><ele>727.5768</ele><time>2026-03-27T19:03:18.000Z</time></trkpt>
        <trkpt lat="29.647946" lon="104.64658"><ele>727.27783</ele><time>2026-03-27T19:03:21.000Z</time></trkpt>
        <trkpt lat="29.647955" lon="104.646526"><ele>727.19574</ele><time>2026-03-27T19:03:24.000Z</time></trkpt>
        <trkpt lat="29.647978" lon="104.646467"><ele>727.4204</ele><time>2026-03-27T19:03:28.000Z</time></trkpt>
        <trkpt lat="29.648008" lon="104.646413"><ele>727.53705</ele><time>2026-03-27T19:03:33.000Z</time></trkpt>
        <trkpt lat="29.648044" lon="104.64637"><ele>727.8842</ele><time>2026-03-27T19:03:37.000Z</time></trkpt>
        <trkpt lat="29.648074" lon="104.646323"><ele>728.5841</ele><time>2026-03-27T19:03:41.000Z</time></trkpt>
        <trkpt lat="29.648088" lon="104.646268"><ele>728.8235</ele><time>2026-03-27T19:03:45.000Z</time></trkpt>
        <trkpt lat="29.648083" lon="104.64621"><ele>729.04614</ele><time>2026-03-27T19:03:50.000Z</time></trkpt>
        <trkpt lat="29.648059" lon="104.646154"><ele>729.22205</ele><time>2026-03-27T19:03:54.000Z</time></trkpt>
        <trkpt lat="29.647995" lon="104.64611"><ele>728.0773</ele><time>2026-03-27T19:04:07.000Z</time></trkpt>
        <trkpt lat="29.647967" lon="104.646076"><ele>727.9702</ele><time>2026-03-27T19:04:11.000Z</time></trkpt>
        <trkpt lat="29.647938" lon="104.646029"><ele>728.286</ele><time>2026-03-27T19:04:15.000Z</time></trkpt>
        <trkpt lat="29.647906" lon="104.645975"><ele>729.19543</ele><time>2026-03-27T19:04:19.000Z</time></trkpt>
        <trkpt lat="29.647866" lon="104.645934"><ele>729.5654</ele><time>2026-03-27T19:04:23.000Z</time></trkpt>
        <trkpt lat="29.64782" lon="104.645909"><ele>729.3702</ele><time>2026-03-27T19:04:27.000Z</time></trkpt>
        <trkpt lat="29.647772" lon="104.645888"><ele>729.15356</ele><time>2026-03-27T19:04:31.000Z</time></trkpt>
        <trkpt lat="29.647721" lon="104.645884"><ele>729.04565</ele><time>2026-03-27T19:04:35.000Z</time></trkpt>
        <trkpt lat="29.647673" lon="104.645898"><ele>729.0948</ele><time>2026-03-27T19:04:39.000Z</time></trkpt>
        <trkpt lat="29.647628" lon="104.645953"><ele>728.3076</ele><time>2026-03-27T19:04:57.000Z</time></trkpt>
        <trkpt lat="29.647599" lon="104.645952"><ele>727.5341</ele><time>2026-03-27T19:05:01.000Z</time></trkpt>
        <trkpt lat="29.64755" lon="104.645971"><ele>727.1526</ele><time>2026-03-27T19:05:05.000Z</time></trkpt>
        <trkpt lat="29.647491" lon="104.646001"><ele>727.2135</ele><time>2026-03-27T19:05:10.000Z</time></trkpt>
        <trkpt lat="29.647424" lon="104.646012"><ele>726.9811</ele><time>2026-03-27T19:05:26.000Z</time></trkpt>
        <trkpt lat="29.647389" lon="104.64601"><ele>726.6443</ele><time>2026-03-27T19:05:30.000Z</time></trkpt>
        <trkpt lat="29.647347" lon="104.645999"><ele>726.55383</ele><time>2026-03-27T19:05:33.000Z</time></trkpt>
        <trkpt lat="29.647291" lon="104.645979"><ele>726.24567</ele><time>2026-03-27T19:05:37.000Z</time></trkpt>
        <trkpt lat="29.647248" lon="104.645952"><ele>726.4967</ele><time>2026-03-27T19:05:40.000Z</time></trkpt>
        <trkpt lat="29.64719" lon="104.645929"><ele>727.24133</ele><time>2026-03-27T19:05:45.000Z</time></trkpt>
        <trkpt lat="29.647141" lon="104.645936"><ele>728.3514</ele><time>2026-03-27T19:05:49.000Z</time></trkpt>
        <trkpt lat="29.647096" lon="104.645978"><ele>728.3253</ele><time>2026-03-27T19:05:59.000Z</time></trkpt>
        <trkpt lat="29.647067" lon="104.645994"><ele>728.21136</ele><time>2026-03-27T19:06:02.000Z</time></trkpt>
        <trkpt lat="29.647016" lon="104.646006"><ele>727.9434</ele><time>2026-03-27T19:06:07.000Z</time></trkpt>
        <trkpt lat="29.646969" lon="104.646027"><ele>727.93207</ele><time>2026-03-27T19:06:11.000Z</time></trkpt>
        <trkpt lat="29.646981" lon="104.64601"><ele>727.89856</ele><time>2026-03-27T19:06:15.000Z</time></trkpt>
        <trkpt lat="29.646957" lon="104.646023"><ele>727.96765</ele><time>2026-03-27T19:06:25.000Z</time></trkpt>
        <trkpt lat="29.646915" lon="104.646018"><ele>727.7485</ele><time>2026-03-27T19:06:29.000Z</time></trkpt>
        <trkpt lat="29.646868" lon="104.645988"><ele>727.57776</ele><time>2026-03-27T19:06:33.000Z</time></trkpt>
        <trkpt lat="29.646815" lon="104.645937"><ele>728.4235</ele><time>2026-03-27T19:06:42.000Z</time></trkpt>
        <trkpt lat="29.646778" lon="104.645917"><ele>728.8113</ele><time>2026-03-27T19:06:46.000Z</time></trkpt>
        <trkpt lat="29.646734" lon="104.645892"><ele>728.9145</ele><time>2026-03-27T19:06:49.000Z</time></trkpt>
        <trkpt lat="29.646688" lon="104.645875"><ele>729.0238</ele><time>2026-03-27T19:06:53.000Z</time></trkpt>
        <trkpt lat="29.646638" lon="104.645888"><ele>728.93396</ele><time>2026-03-27T19:06:58.000Z</time></trkpt>
        <trkpt lat="29.64659" lon="104.645938"><ele>728.8783</ele><time>2026-03-27T19:07:05.000Z</time></trkpt>
        <trkpt lat="29.646555" lon="104.645973"><ele>728.4074</ele><time>2026-03-27T19:07:09.000Z</time></trkpt>
        <trkpt lat="29.646513" lon="104.646007"><ele>727.8065</ele><time>2026-03-27T19:07:13.000Z</time></trkpt>
        <trkpt lat="29.646469" lon="104.646038"><ele>727.9574</ele><time>2026-03-27T19:07:17.000Z</time></trkpt>
        <trkpt lat="29.646407" lon="104.646054"><ele>726.7107</ele><time>2026-03-27T19:07:25.000Z</time></trkpt>
        <trkpt lat="29.646371" lon="104.646068"><ele>725.7332</ele><time>2026-03-27T19:07:28.000Z</time></trkpt>
        <trkpt lat="29.646329" lon="104.646075"><ele>725.50854</ele><time>2026-03-27T19:07:31.000Z</time></trkpt>
        <trkpt lat="29.646266" lon="104.646088"><ele>725.37775</ele><time>2026-03-27T19:07:38.000Z</time></trkpt>
        <trkpt lat="29.646224" lon="104.646094"><ele>725.2901</ele><time>2026-03-27T19:07:42.000Z</time></trkpt>
        <trkpt lat="29.646168" lon="104.646087"><ele>725.7757</ele><time>2026-03-27T19:07:47.000Z</time></trkpt>
        <trkpt lat="29.646122" lon="104.646069"><ele>725.7132</ele><time>2026-03-27T19:07:51.000Z</time></trkpt>
        <trkpt lat="29.64608" lon="104.646057"><ele>725.7504</ele><time>2026-03-27T19:07:54.000Z</time></trkpt>
        <trkpt lat="29.646026" lon="104.64604"><ele>725.6892</ele><time>2026-03-27T19:07:58.000Z</time></trkpt>
        <trkpt lat="29.645975" lon="104.646015"><ele>725.55725</ele><time>2026-03-27T19:08:03.000Z</time></trkpt>
        <trkpt lat="29.645933" lon="104.645974"><ele>725.54785</ele><time>2026-03-27T19:08:07.000Z</time></trkpt>
        <trkpt lat="29.645892" lon="104.645929"><ele>725.71967</ele><time>2026-03-27T19:08:11.000Z</time></trkpt>
        <trkpt lat="29.645846" lon="104.64589"><ele>726.00824</ele><time>2026-03-27T19:08:15.000Z</time></trkpt>
        <trkpt lat="29.645799" lon="104.645856"><ele>726.50653</ele><time>2026-03-27T19:08:19.000Z</time></trkpt>
        <trkpt lat="29.645751" lon="104.645827"><ele>727.25806</ele><time>2026-03-27T19:08:23.000Z</time></trkpt>
        <trkpt lat="29.645697" lon="104.645815"><ele>728.51184</ele><time>2026-03-27T19:08:36.000Z</time></trkpt>
        <trkpt lat="29.645661" lon="104.645818"><ele>728.408</ele><time>2026-03-27T19:08:42.000Z</time></trkpt>
        <trkpt lat="29.645618" lon="104.645818"><ele>728.51874</ele><time>2026-03-27T19:08:46.000Z</time></trkpt>
        <trkpt lat="29.645567" lon="104.645822"><ele>728.7094</ele><time>2026-03-27T19:08:50.000Z</time></trkpt>
        <trkpt lat="29.645502" lon="104.645808"><ele>728.459</ele><time>2026-03-27T19:08:59.000Z</time></trkpt>
        <trkpt lat="29.645475" lon="104.645782"><ele>728.49457</ele><time>2026-03-27T19:09:02.000Z</time></trkpt>
        <trkpt lat="29.645427" lon="104.645748"><ele>727.80536</ele><time>2026-03-27T19:09:08.000Z</time></trkpt>
        <trkpt lat="29.645397" lon="104.645718"><ele>727.5148</ele><time>2026-03-27T19:09:11.000Z</time></trkpt>
        <trkpt lat="29.645352" lon="104.645676"><ele>727.6124</ele><time>2026-03-27T19:09:15.000Z</time></trkpt>
        <trkpt lat="29.645307" lon="104.645633"><ele>727.4031</ele><time>2026-03-27T19:09:19.000Z</time></trkpt>
        <trkpt lat="29.645263" lon="104.645587"><ele>727.0287</ele><time>2026-03-27T19:09:23.000Z</time></trkpt>
        <trkpt lat="29.645223" lon="104.645539"><ele>726.8917</ele><time>2026-03-27T19:09:27.000Z</time></trkpt>
        <trkpt lat="29.645221" lon="104.645487"><ele>726.6853</ele><time>2026-03-27T19:09:31.000Z</time></trkpt>
        <trkpt lat="29.64525" lon="104.645426"><ele>726.33105</ele><time>2026-03-27T19:09:41.000Z</time></trkpt>
        <trkpt lat="29.645282" lon="104.64538"><ele>727.35205</ele><time>2026-03-27T19:09:48.000Z</time></trkpt>
        <trkpt lat="29.645316" lon="104.645325"><ele>726.90497</ele><time>2026-03-27T19:10:05.000Z</time></trkpt>
        <trkpt lat="29.645331" lon="104.645287"><ele>727.11365</ele><time>2026-03-27T19:10:10.000Z</time></trkpt>
        <trkpt lat="29.645351" lon="104.645229"><ele>727.7313</ele><time>2026-03-27T19:10:15.000Z</time></trkpt>
        <trkpt lat="29.64536" lon="104.645175"><ele>728.1829</ele><time>2026-03-27T19:10:19.000Z</time></trkpt>
        <trkpt lat="29.645357" lon="104.64511"><ele>728.4861</ele><time>2026-03-27T19:10:28.000Z</time></trkpt>
        <trkpt lat="29.645339" lon="104.645067"><ele>728.3896</ele><time>2026-03-27T19:10:33.000Z</time></trkpt>
        <trkpt lat="29.645331" lon="104.645019"><ele>728.264</ele><time>2026-03-27T19:10:37.000Z</time></trkpt>
        <trkpt lat="29.645338" lon="104.644964"><ele>727.74536</ele><time>2026-03-27T19:10:42.000Z</time></trkpt>
        <trkpt lat="29.645336" lon="104.644902"><ele>727.6109</ele><time>2026-03-27T19:10:47.000Z</time></trkpt>
        <trkpt lat="29.645345" lon="104.644849"><ele>727.7884</ele><time>2026-03-27T19:10:51.000Z</time></trkpt>
        <trkpt lat="29.645352" lon="104.644778"><ele>727.7037</ele><time>2026-03-27T19:10:56.000Z</time></trkpt>
        <trkpt lat="29.645345" lon="104.644727"><ele>727.5386</ele><time>2026-03-27T19:11:00.000Z</time></trkpt>
        <trkpt lat="29.645317" lon="104.644674"><ele>727.36273</ele><time>2026-03-27T19:11:05.000Z</time></trkpt>
        <trkpt lat="29.645277" lon="104.644624"><ele>727.31</ele><time>2026-03-27T19:11:12.000Z</time></trkpt>
        <trkpt lat="29.645237" lon="104.644593"><ele>727.9022</ele><time>2026-03-27T19:11:17.000Z</time></trkpt>
        <trkpt lat="29.64519" lon="104.644577"><ele>728.1262</ele><time>2026-03-27T19:11:22.000Z</time></trkpt>
        <trkpt lat="29.645147" lon="104.644581"><ele>728.524</ele><time>2026-03-27T19:11:26.000Z</time></trkpt>
        <trkpt lat="29.645093" lon="104.644592"><ele>728.3072</ele><time>2026-03-27T19:11:31.000Z</time></trkpt>
        <trkpt lat="29.645044" lon="104.644582"><ele>728.98303</ele><time>2026-03-27T19:11:36.000Z</time></trkpt>
        <trkpt lat="29.644992" lon="104.644596"><ele>728.64594</ele><time>2026-03-27T19:11:41.000Z</time></trkpt>
        <trkpt lat="29.644951" lon="104.644588"><ele>728.2099</ele><time>2026-03-27T19:11:45.000Z</time></trkpt>
        <trkpt lat="29.644908" lon="104.644551"><ele>727.93134</ele><time>2026-03-27T19:11:59.000Z</time></trkpt>
        <trkpt lat="29.644893" lon="104.644512"><ele>729.1358</ele><time>2026-03-27T19:12:03.000Z</time></trkpt>
        <trkpt lat="29.644868" lon="104.644457"><ele>730.764</ele><time>2026-03-27T19:12:10.000Z</time></trkpt>
        <trkpt lat="29.644837" lon="104.644412"><ele>730.8021</ele><time>2026-03-27T19:12:17.000Z</time></trkpt>
        <trkpt lat="29.644807" lon="104.644368"><ele>731.1812</ele><time>2026-03-27T19:12:22.000Z</time></trkpt>
        <trkpt lat="29.64479" lon="104.644314"><ele>731.343</ele><time>2026-03-27T19:12:27.000Z</time></trkpt>
        <trkpt lat="29.644779" lon="104.644264"><ele>731.22784</ele><time>2026-03-27T19:12:31.000Z</time></trkpt>
        <trkpt lat="29.644769" lon="104.644201"><ele>731.19336</ele><time>2026-03-27T19:12:36.000Z</time></trkpt>
        <trkpt lat="29.644763" lon="104.644144"><ele>731.4751</ele><time>2026-03-27T19:12:41.000Z</time></trkpt>
        <trkpt lat="29.64475" lon="104.644082"><ele>731.73267</ele><time>2026-03-27T19:12:46.000Z</time></trkpt>
        <trkpt lat="29.644725" lon="104.644032"><ele>732.03534</ele><time>2026-03-27T19:12:51.000Z</time></trkpt>
        <trkpt lat="29.644705" lon="104.64398"><ele>731.7676</ele><time>2026-03-27T19:12:55.000Z</time></trkpt>
        <trkpt lat="29.644706" lon="104.643906"><ele>731.5128</ele><time>2026-03-27T19:13:09.000Z</time></trkpt>
        <trkpt lat="29.644704" lon="104.643867"><ele>731.443</ele><time>2026-03-27T19:13:13.000Z</time></trkpt>
        <trkpt lat="29.644689" lon="104.643805"><ele>731.03864</ele><time>2026-03-27T19:13:18.000Z</time></trkpt>
        <trkpt lat="29.64467" lon="104.643748"><ele>730.866</ele><time>2026-03-27T19:13:22.000Z</time></trkpt>
        <trkpt lat="29.644646" lon="104.643694"><ele>730.8833</ele><time>2026-03-27T19:13:26.000Z</time></trkpt>
        <trkpt lat="29.644618" lon="104.643642"><ele>731.07916</ele><time>2026-03-27T19:13:30.000Z</time></trkpt>
        <trkpt lat="29.644604" lon="104.64359"><ele>730.99945</ele><time>2026-03-27T19:13:34.000Z</time></trkpt>
        <trkpt lat="29.644595" lon="104.643535"><ele>730.8421</ele><time>2026-03-27T19:13:38.000Z</time></trkpt>
        <trkpt lat="29.6446" lon="104.643479"><ele>730.7151</ele><time>2026-03-27T19:13:42.000Z</time></trkpt>
        <trkpt lat="29.644614" lon="104.643424"><ele>730.46313</ele><time>2026-03-27T19:13:46.000Z</time></trkpt>
        <trkpt lat="29.644642" lon="104.643366"><ele>730.4332</ele><time>2026-03-27T19:13:51.000Z</time></trkpt>
        <trkpt lat="29.644671" lon="104.643322"><ele>730.52893</ele><time>2026-03-27T19:13:55.000Z</time></trkpt>
        <trkpt lat="29.644709" lon="104.643273"><ele>731.29205</ele><time>2026-03-27T19:14:00.000Z</time></trkpt>
        <trkpt lat="29.64474" lon="104.64323"><ele>731.97833</ele><time>2026-03-27T19:14:04.000Z</time></trkpt>
        <trkpt lat="29.644775" lon="104.643179"><ele>732.3111</ele><time>2026-03-27T19:14:10.000Z</time></trkpt>
        <trkpt lat="29.644802" lon="104.643131"><ele>732.94165</ele><time>2026-03-27T19:14:15.000Z</time></trkpt>
        <trkpt lat="29.644821" lon="104.643082"><ele>733.5906</ele><time>2026-03-27T19:14:21.000Z</time></trkpt>
        <trkpt lat="29.64484" lon="104.643032"><ele>734.57556</ele><time>2026-03-27T19:14:25.000Z</time></trkpt>
        <trkpt lat="29.644857" lon="104.642977"><ele>735.3931</ele><time>2026-03-27T19:14:29.000Z</time></trkpt>
        <trkpt lat="29.64487" lon="104.642919"><ele>736.55975</ele><time>2026-03-27T19:14:33.000Z</time></trkpt>
        <trkpt lat="29.644883" lon="104.64286"><ele>735.8281</ele><time>2026-03-27T19:14:38.000Z</time></trkpt>
        <trkpt lat="29.644886" lon="104.642802"><ele>735.2901</ele><time>2026-03-27T19:14:45.000Z</time></trkpt>
        <trkpt lat="29.644895" lon="104.642753"><ele>736.06683</ele><time>2026-03-27T19:14:50.000Z</time></trkpt>
        <trkpt lat="29.644891" lon="104.642696"><ele>736.5627</ele><time>2026-03-27T19:14:54.000Z</time></trkpt>
        <trkpt lat="29.644889" lon="104.642637"><ele>736.38556</ele><time>2026-03-27T19:14:58.000Z</time></trkpt>
        <trkpt lat="29.64488" lon="104.642587"><ele>736.2282</ele><time>2026-03-27T19:15:01.000Z</time></trkpt>
        <trkpt lat="29.644875" lon="104.642522"><ele>735.9785</ele><time>2026-03-27T19:15:05.000Z</time></trkpt>
        <trkpt lat="29.644869" lon="104.642471"><ele>736.2498</ele><time>2026-03-27T19:15:07.000Z</time></trkpt>
        <trkpt lat="29.644868" lon="104.642404"><ele>737.42346</ele><time>2026-03-27T19:15:11.000Z</time></trkpt>
        <trkpt lat="29.644861" lon="104.642346"><ele>737.39514</ele><time>2026-03-27T19:15:15.000Z</time></trkpt>
        <trkpt lat="29.644863" lon="104.642287"><ele>737.4276</ele><time>2026-03-27T19:15:19.000Z</time></trkpt>
        <trkpt lat="29.644867" lon="104.64223"><ele>737.5304</ele><time>2026-03-27T19:15:23.000Z</time></trkpt>
        <trkpt lat="29.644874" lon="104.642172"><ele>737.73956</ele><time>2026-03-27T19:15:27.000Z</time></trkpt>
        <trkpt lat="29.644883" lon="104.642117"><ele>737.665</ele><time>2026-03-27T19:15:31.000Z</time></trkpt>
        <trkpt lat="29.644877" lon="104.642052"><ele>737.7512</ele><time>2026-03-27T19:15:36.000Z</time></trkpt>
        <trkpt lat="29.644862" lon="104.642003"><ele>738.2062</ele><time>2026-03-27T19:15:40.000Z</time></trkpt>
        <trkpt lat="29.64484" lon="104.641956"><ele>738.3571</ele><time>2026-03-27T19:15:44.000Z</time></trkpt>
        <trkpt lat="29.644812" lon="104.641898"><ele>738.8292</ele><time>2026-03-27T19:15:49.000Z</time></trkpt>
        <trkpt lat="29.644783" lon="104.641843"><ele>738.6928</ele><time>2026-03-27T19:15:54.000Z</time></trkpt>
        <trkpt lat="29.644748" lon="104.641801"><ele>738.1202</ele><time>2026-03-27T19:15:59.000Z</time></trkpt>
        <trkpt lat="29.644714" lon="104.641755"><ele>738.4244</ele><time>2026-03-27T19:16:05.000Z</time></trkpt>
        <trkpt lat="29.644773" lon="104.641776"><ele>738.9837</ele><time>2026-03-27T19:16:27.000Z</time></trkpt>
        <trkpt lat="29.644728" lon="104.641767"><ele>736.8975</ele><time>2026-03-27T19:17:06.000Z</time></trkpt>
        <trkpt lat="29.644701" lon="104.641744"><ele>735.65485</ele><time>2026-03-27T19:17:08.000Z</time></trkpt>
        <trkpt lat="29.644667" lon="104.641698"><ele>734.07306</ele><time>2026-03-27T19:17:12.000Z</time></trkpt>
        <trkpt lat="29.64464" lon="104.641645"><ele>732.9882</ele><time>2026-03-27T19:17:15.000Z</time></trkpt>
        <trkpt lat="29.644623" lon="104.641591"><ele>732.78186</ele><time>2026-03-27T19:17:19.000Z</time></trkpt>
        <trkpt lat="29.644605" lon="104.641536"><ele>732.14276</ele><time>2026-03-27T19:17:23.000Z</time></trkpt>
        <trkpt lat="29.644578" lon="104.64148"><ele>730.81616</ele><time>2026-03-27T19:17:28.000Z</time></trkpt>
        <trkpt lat="29.644546" lon="104.641439"><ele>729.8598</ele><time>2026-03-27T19:17:32.000Z</time></trkpt>
        <trkpt lat="29.644506" lon="104.641399"><ele>729.1794</ele><time>2026-03-27T19:17:37.000Z</time></trkpt>
        <trkpt lat="29.644465" lon="104.641359"><ele>729.1348</ele><time>2026-03-27T19:17:42.000Z</time></trkpt>
        <trkpt lat="29.644434" lon="104.641311"><ele>729.01434</ele><time>2026-03-27T19:17:47.000Z</time></trkpt>
        <trkpt lat="29.644421" lon="104.641252"><ele>729.0804</ele><time>2026-03-27T19:17:52.000Z</time></trkpt>
        <trkpt lat="29.644414" lon="104.641192"><ele>728.5077</ele><time>2026-03-27T19:17:57.000Z</time></trkpt>
        <trkpt lat="29.644406" lon="104.641133"><ele>727.4767</ele><time>2026-03-27T19:18:02.000Z</time></trkpt>
        <trkpt lat="29.6444" lon="104.641083"><ele>726.7314</ele><time>2026-03-27T19:18:06.000Z</time></trkpt>
        <trkpt lat="29.644372" lon="104.641029"><ele>725.621</ele><time>2026-03-27T19:18:11.000Z</time></trkpt>
        <trkpt lat="29.644328" lon="104.640989"><ele>724.811</ele><time>2026-03-27T19:18:16.000Z</time></trkpt>
        <trkpt lat="29.644286" lon="104.640962"><ele>724.5818</ele><time>2026-03-27T19:18:20.000Z</time></trkpt>
        <trkpt lat="29.644237" lon="104.640934"><ele>724.54095</ele><time>2026-03-27T19:18:25.000Z</time></trkpt>
        <trkpt lat="29.644191" lon="104.640911"><ele>724.3695</ele><time>2026-03-27T19:18:29.000Z</time></trkpt>
        <trkpt lat="29.644139" lon="104.640875"><ele>724.1096</ele><time>2026-03-27T19:18:35.000Z</time></trkpt>
        <trkpt lat="29.644098" lon="104.640841"><ele>723.1981</ele><time>2026-03-27T19:18:39.000Z</time></trkpt>
        <trkpt lat="29.644045" lon="104.640808"><ele>722.05804</ele><time>2026-03-27T19:18:44.000Z</time></trkpt>
        <trkpt lat="29.644004" lon="104.640785"><ele>721.4877</ele><time>2026-03-27T19:18:48.000Z</time></trkpt>
        <trkpt lat="29.643962" lon="104.640762"><ele>721.5196</ele><time>2026-03-27T19:18:52.000Z</time></trkpt>
        <trkpt lat="29.643917" lon="104.640747"><ele>721.7681</ele><time>2026-03-27T19:18:56.000Z</time></trkpt>
        <trkpt lat="29.643869" lon="104.640728"><ele>721.9456</ele><time>2026-03-27T19:19:00.000Z</time></trkpt>
        <trkpt lat="29.643816" lon="104.640713"><ele>721.17126</ele><time>2026-03-27T19:19:05.000Z</time></trkpt>
        <trkpt lat="29.643772" lon="104.640694"><ele>720.4221</ele><time>2026-03-27T19:19:09.000Z</time></trkpt>
        <trkpt lat="29.643726" lon="104.640682"><ele>720.0346</ele><time>2026-03-27T19:19:13.000Z</time></trkpt>
        <trkpt lat="29.643661" lon="104.640696"><ele>718.6828</ele><time>2026-03-27T19:19:20.000Z</time></trkpt>
        <trkpt lat="29.64361" lon="104.640723"><ele>718.6458</ele><time>2026-03-27T19:19:25.000Z</time></trkpt>
        <trkpt lat="29.643564" lon="104.640737"><ele>718.6129</ele><time>2026-03-27T19:19:30.000Z</time></trkpt>
        <trkpt lat="29.643524" lon="104.640756"><ele>718.21716</ele><time>2026-03-27T19:19:34.000Z</time></trkpt>
        <trkpt lat="29.64347" lon="104.640764"><ele>716.7358</ele><time>2026-03-27T19:19:39.000Z</time></trkpt>
        <trkpt lat="29.643424" lon="104.64074"><ele>715.85077</ele><time>2026-03-27T19:19:43.000Z</time></trkpt>
        <trkpt lat="29.643385" lon="104.640702"><ele>714.9924</ele><time>2026-03-27T19:19:47.000Z</time></trkpt>
        <trkpt lat="29.643358" lon="104.640656"><ele>714.28326</ele><time>2026-03-27T19:19:51.000Z</time></trkpt>
        <trkpt lat="29.643359" lon="104.640585"><ele>712.43146</ele><time>2026-03-27T19:20:09.000Z</time></trkpt>
        <trkpt lat="29.643356" lon="104.640548"><ele>712.31824</ele><time>2026-03-27T19:20:14.000Z</time></trkpt>
        <trkpt lat="29.643342" lon="104.640495"><ele>712.16364</ele><time>2026-03-27T19:20:19.000Z</time></trkpt>
        <trkpt lat="29.643328" lon="104.640433"><ele>711.87274</ele><time>2026-03-27T19:20:24.000Z</time></trkpt>
        <trkpt lat="29.64332" lon="104.640375"><ele>711.68085</ele><time>2026-03-27T19:20:28.000Z</time></trkpt>
        <trkpt lat="29.643311" lon="104.640317"><ele>711.6091</ele><time>2026-03-27T19:20:32.000Z</time></trkpt>
        <trkpt lat="29.643301" lon="104.640261"><ele>712.26294</ele><time>2026-03-27T19:20:37.000Z</time></trkpt>
        <trkpt lat="29.643298" lon="104.640204"><ele>712.4543</ele><time>2026-03-27T19:20:41.000Z</time></trkpt>
        <trkpt lat="29.643297" lon="104.640148"><ele>713.8242</ele><time>2026-03-27T19:20:45.000Z</time></trkpt>
        <trkpt lat="29.643284" lon="104.640093"><ele>715.40826</ele><time>2026-03-27T19:20:50.000Z</time></trkpt>
        <trkpt lat="29.643266" lon="104.640035"><ele>717.09753</ele><time>2026-03-27T19:21:02.000Z</time></trkpt>
        <trkpt lat="29.643238" lon="104.639998"><ele>717.5879</ele><time>2026-03-27T19:21:08.000Z</time></trkpt>
        <trkpt lat="29.643195" lon="104.639955"><ele>718.69476</ele><time>2026-03-27T19:21:24.000Z</time></trkpt>
        <trkpt lat="29.643157" lon="104.639949"><ele>718.62787</ele><time>2026-03-27T19:21:29.000Z</time></trkpt>
        <trkpt lat="29.643112" lon="104.639934"><ele>718.2167</ele><time>2026-03-27T19:21:33.000Z</time></trkpt>
        <trkpt lat="29.64306" lon="104.639911"><ele>717.5913</ele><time>2026-03-27T19:21:38.000Z</time></trkpt>
        <trkpt lat="29.643017" lon="104.639919"><ele>717.41174</ele><time>2026-03-27T19:21:42.000Z</time></trkpt>
        <trkpt lat="29.642966" lon="104.639955"><ele>717.2204</ele><time>2026-03-27T19:21:48.000Z</time></trkpt>
        <trkpt lat="29.642931" lon="104.640006"><ele>717.02466</ele><time>2026-03-27T19:21:52.000Z</time></trkpt>
        <trkpt lat="29.642886" lon="104.640035"><ele>716.6127</ele><time>2026-03-27T19:21:57.000Z</time></trkpt>
        <trkpt lat="29.642852" lon="104.640056"><ele>716.65094</ele><time>2026-03-27T19:22:00.000Z</time></trkpt>
        <trkpt lat="29.642795" lon="104.640069"><ele>716.4839</ele><time>2026-03-27T19:22:05.000Z</time></trkpt>
        <trkpt lat="29.642748" lon="104.640073"><ele>716.55426</ele><time>2026-03-27T19:22:09.000Z</time></trkpt>
        <trkpt lat="29.642723" lon="104.640022"><ele>717.7124</ele><time>2026-03-27T19:22:27.000Z</time></trkpt>
        <trkpt lat="29.642699" lon="104.640026"><ele>716.9113</ele><time>2026-03-27T19:22:31.000Z</time></trkpt>
        <trkpt lat="29.642651" lon="104.640031"><ele>715.5505</ele><time>2026-03-27T19:22:35.000Z</time></trkpt>
        <trkpt lat="29.642598" lon="104.640022"><ele>714.143</ele><time>2026-03-27T19:22:39.000Z</time></trkpt>
        <trkpt lat="29.642551" lon="104.639993"><ele>713.3477</ele><time>2026-03-27T19:22:44.000Z</time></trkpt>
        <trkpt lat="29.642507" lon="104.639952"><ele>713.016</ele><time>2026-03-27T19:22:48.000Z</time></trkpt>
        <trkpt lat="29.642469" lon="104.639909"><ele>713.21124</ele><time>2026-03-27T19:22:52.000Z</time></trkpt>
        <trkpt lat="29.64243" lon="104.639865"><ele>713.44464</ele><time>2026-03-27T19:22:56.000Z</time></trkpt>
        <trkpt lat="29.642381" lon="104.639841"><ele>713.6191</ele><time>2026-03-27T19:23:00.000Z</time></trkpt>
        <trkpt lat="29.64233" lon="104.639849"><ele>712.7618</ele><time>2026-03-27T19:23:04.000Z</time></trkpt>
        <trkpt lat="29.642279" lon="104.639875"><ele>712.0747</ele><time>2026-03-27T19:23:08.000Z</time></trkpt>
        <trkpt lat="29.642226" lon="104.639886"><ele>710.03625</ele><time>2026-03-27T19:23:12.000Z</time></trkpt>
        <trkpt lat="29.642175" lon="104.639905"><ele>707.7515</ele><time>2026-03-27T19:23:16.000Z</time></trkpt>
        <trkpt lat="29.642124" lon="104.639904"><ele>705.5961</ele><time>2026-03-27T19:23:20.000Z</time></trkpt>
        <trkpt lat="29.642072" lon="104.639886"><ele>704.4685</ele><time>2026-03-27T19:23:24.000Z</time></trkpt>
        <trkpt lat="29.642024" lon="104.639863"><ele>703.9984</ele><time>2026-03-27T19:23:28.000Z</time></trkpt>
        <trkpt lat="29.64197" lon="104.639833"><ele>703.4569</ele><time>2026-03-27T19:23:32.000Z</time></trkpt>
        <trkpt lat="29.641918" lon="104.639796"><ele>703.0627</ele><time>2026-03-27T19:23:35.000Z</time></trkpt>
        <trkpt lat="29.641873" lon="104.639749"><ele>703.1244</ele><time>2026-03-27T19:23:39.000Z</time></trkpt>
        <trkpt lat="29.641838" lon="104.639714"><ele>703.4099</ele><time>2026-03-27T19:23:42.000Z</time></trkpt>
        <trkpt lat="29.641801" lon="104.639681"><ele>703.6395</ele><time>2026-03-27T19:23:45.000Z</time></trkpt>
        <trkpt lat="29.641762" lon="104.639648"><ele>703.37006</ele><time>2026-03-27T19:23:48.000Z</time></trkpt>
        <trkpt lat="29.641725" lon="104.639613"><ele>703.36664</ele><time>2026-03-27T19:23:51.000Z</time></trkpt>
        <trkpt lat="29.641686" lon="104.639571"><ele>703.46747</ele><time>2026-03-27T19:23:55.000Z</time></trkpt>
        <trkpt lat="29.641655" lon="104.639522"><ele>703.84674</ele><time>2026-03-27T19:23:59.000Z</time></trkpt>
        <trkpt lat="29.641609" lon="104.639492"><ele>703.8914</ele><time>2026-03-27T19:24:03.000Z</time></trkpt>
        <trkpt lat="29.641566" lon="104.639478"><ele>703.96924</ele><time>2026-03-27T19:24:06.000Z</time></trkpt>
        <trkpt lat="29.641513" lon="104.63946"><ele>703.3864</ele><time>2026-03-27T19:24:10.000Z</time></trkpt>
        <trkpt lat="29.641462" lon="104.639459"><ele>703.26965</ele><time>2026-03-27T19:24:14.000Z</time></trkpt>
        <trkpt lat="29.641414" lon="104.639467"><ele>702.87915</ele><time>2026-03-27T19:24:18.000Z</time></trkpt>
        <trkpt lat="29.641362" lon="104.639491"><ele>702.5957</ele><time>2026-03-27T19:24:22.000Z</time></trkpt>
        <trkpt lat="29.641356" lon="104.639535"><ele>702.329</ele><time>2026-03-27T19:24:26.000Z</time></trkpt>
        <trkpt lat="29.641359" lon="104.639605"><ele>702.26117</ele><time>2026-03-27T19:24:34.000Z</time></trkpt>
        <trkpt lat="29.641337" lon="104.639631"><ele>702.52515</ele><time>2026-03-27T19:24:38.000Z</time></trkpt>
        <trkpt lat="29.641296" lon="104.639668"><ele>701.6829</ele><time>2026-03-27T19:24:44.000Z</time></trkpt>
        <trkpt lat="29.641291" lon="104.639715"><ele>702.0028</ele><time>2026-03-27T19:24:49.000Z</time></trkpt>
        <trkpt lat="29.64129" lon="104.639771"><ele>702.1562</ele><time>2026-03-27T19:24:53.000Z</time></trkpt>
        <trkpt lat="29.641286" lon="104.639832"><ele>702.6744</ele><time>2026-03-27T19:24:57.000Z</time></trkpt>
        <trkpt lat="29.641277" lon="104.639889"><ele>702.857</ele><time>2026-03-27T19:25:01.000Z</time></trkpt>
        <trkpt lat="29.641254" lon="104.639936"><ele>703.11505</ele><time>2026-03-27T19:25:05.000Z</time></trkpt>
        <trkpt lat="29.641211" lon="104.639965"><ele>703.07605</ele><time>2026-03-27T19:25:09.000Z</time></trkpt>
        <trkpt lat="29.641167" lon="104.639972"><ele>702.87036</ele><time>2026-03-27T19:25:12.000Z</time></trkpt>
        <trkpt lat="29.641108" lon="104.639974"><ele>702.5312</ele><time>2026-03-27T19:25:16.000Z</time></trkpt>
        <trkpt lat="29.641045" lon="104.639975"><ele>702.494</ele><time>2026-03-27T19:25:22.000Z</time></trkpt>
        <trkpt lat="29.641001" lon="104.639969"><ele>702.5305</ele><time>2026-03-27T19:25:26.000Z</time></trkpt>
        <trkpt lat="29.640951" lon="104.639965"><ele>702.3946</ele><time>2026-03-27T19:25:30.000Z</time></trkpt>
        <trkpt lat="29.640901" lon="104.639949"><ele>702.6929</ele><time>2026-03-27T19:25:34.000Z</time></trkpt>
        <trkpt lat="29.640846" lon="104.639934"><ele>703.6487</ele><time>2026-03-27T19:25:37.000Z</time></trkpt>
        <trkpt lat="29.640788" lon="104.639921"><ele>704.19934</ele><time>2026-03-27T19:25:41.000Z</time></trkpt>
        <trkpt lat="29.640734" lon="104.639904"><ele>704.45123</ele><time>2026-03-27T19:25:45.000Z</time></trkpt>
        <trkpt lat="29.640679" lon="104.63988"><ele>704.4925</ele><time>2026-03-27T19:25:49.000Z</time></trkpt>
        <trkpt lat="29.640627" lon="104.639852"><ele>705.3484</ele><time>2026-03-27T19:25:53.000Z</time></trkpt>
        <trkpt lat="29.640583" lon="104.639821"><ele>706.4479</ele><time>2026-03-27T19:25:57.000Z</time></trkpt>
        <trkpt lat="29.640543" lon="104.639827"><ele>708.06506</ele><time>2026-03-27T19:26:01.000Z</time></trkpt>
        <trkpt lat="29.64049" lon="104.639837"><ele>709.62537</ele><time>2026-03-27T19:26:06.000Z</time></trkpt>
        <trkpt lat="29.640445" lon="104.639857"><ele>710.37823</ele><time>2026-03-27T19:26:10.000Z</time></trkpt>
        <trkpt lat="29.640394" lon="104.639861"><ele>711.59326</ele><time>2026-03-27T19:26:16.000Z</time></trkpt>
        <trkpt lat="29.640353" lon="104.639847"><ele>712.3293</ele><time>2026-03-27T19:26:21.000Z</time></trkpt>
        <trkpt lat="29.640307" lon="104.639848"><ele>712.9168</ele><time>2026-03-27T19:26:27.000Z</time></trkpt>
        <trkpt lat="29.640265" lon="104.639841"><ele>712.9192</ele><time>2026-03-27T19:26:31.000Z</time></trkpt>
        <trkpt lat="29.640234" lon="104.639809"><ele>712.627</ele><time>2026-03-27T19:26:34.000Z</time></trkpt>
        <trkpt lat="29.6402" lon="104.639747"><ele>713.2219</ele><time>2026-03-27T19:26:43.000Z</time></trkpt>
        <trkpt lat="29.640168" lon="104.639728"><ele>713.2728</ele><time>2026-03-27T19:26:47.000Z</time></trkpt>
        <trkpt lat="29.640124" lon="104.63971"><ele>713.0824</ele><time>2026-03-27T19:26:51.000Z</time></trkpt>
        <trkpt lat="29.640078" lon="104.639676"><ele>713.0949</ele><time>2026-03-27T19:26:56.000Z</time></trkpt>
        <trkpt lat="29.640028" lon="104.639635"><ele>713.6747</ele><time>2026-03-27T19:27:03.000Z</time></trkpt>
        <trkpt lat="29.639987" lon="104.639607"><ele>714.165</ele><time>2026-03-27T19:27:07.000Z</time></trkpt>
        <trkpt lat="29.639945" lon="104.639571"><ele>714.8832</ele><time>2026-03-27T19:27:11.000Z</time></trkpt>
        <trkpt lat="29.639908" lon="104.639534"><ele>715.8729</ele><time>2026-03-27T19:27:15.000Z</time></trkpt>
        <trkpt lat="29.63987" lon="104.639498"><ele>716.6281</ele><time>2026-03-27T19:27:19.000Z</time></trkpt>
        <trkpt lat="29.639833" lon="104.63946"><ele>716.60675</ele><time>2026-03-27T19:27:23.000Z</time></trkpt>
        <trkpt lat="29.639804" lon="104.639424"><ele>716.8742</ele><time>2026-03-27T19:27:26.000Z</time></trkpt>
        <trkpt lat="29.639763" lon="104.639379"><ele>717.58954</ele><time>2026-03-27T19:27:30.000Z</time></trkpt>
        <trkpt lat="29.639723" lon="104.639333"><ele>718.1833</ele><time>2026-03-27T19:27:34.000Z</time></trkpt>
        <trkpt lat="29.639686" lon="104.639289"><ele>719.27435</ele><time>2026-03-27T19:27:37.000Z</time></trkpt>
        <trkpt lat="29.639665" lon="104.639236"><ele>720.464</ele><time>2026-03-27T19:27:41.000Z</time></trkpt>
        <trkpt lat="29.639656" lon="104.639168"><ele>720.86884</ele><time>2026-03-27T19:27:48.000Z</time></trkpt>
        <trkpt lat="29.639624" lon="104.639143"><ele>720.3559</ele><time>2026-03-27T19:27:52.000Z</time></trkpt>
        <trkpt lat="29.639574" lon="104.639118"><ele>720.1151</ele><time>2026-03-27T19:27:56.000Z</time></trkpt>
        <trkpt lat="29.639521" lon="104.639096"><ele>719.7963</ele><time>2026-03-27T19:28:00.000Z</time></trkpt>
        <trkpt lat="29.639468" lon="104.639077"><ele>719.3456</ele><time>2026-03-27T19:28:04.000Z</time></trkpt>
        <trkpt lat="29.639435" lon="104.639027"><ele>719.49884</ele><time>2026-03-27T19:28:08.000Z</time></trkpt>
        <trkpt lat="29.6394" lon="104.638978"><ele>719.9906</ele><time>2026-03-27T19:28:12.000Z</time></trkpt>
        <trkpt lat="29.639359" lon="104.638936"><ele>720.3346</ele><time>2026-03-27T19:28:16.000Z</time></trkpt>
        <trkpt lat="29.639314" lon="104.638898"><ele>720.47925</ele><time>2026-03-27T19:28:20.000Z</time></trkpt>
        <trkpt lat="29.639269" lon="104.638864"><ele>720.82275</ele><time>2026-03-27T19:28:24.000Z</time></trkpt>
        <trkpt lat="29.639242" lon="104.63882"><ele>720.54663</ele><time>2026-03-27T19:28:28.000Z</time></trkpt>
        <trkpt lat="29.639265" lon="104.638768"><ele>721.03827</ele><time>2026-03-27T19:28:31.000Z</time></trkpt>
        <trkpt lat="29.6393" lon="104.638729"><ele>721.12604</ele><time>2026-03-27T19:28:33.000Z</time></trkpt>
        <trkpt lat="29.639347" lon="104.638678"><ele>721.3569</ele><time>2026-03-27T19:28:36.000Z</time></trkpt>
        <trkpt lat="29.6394" lon="104.63864"><ele>721.306</ele><time>2026-03-27T19:28:39.000Z</time></trkpt>
        <trkpt lat="29.639452" lon="104.638614"><ele>721.1095</ele><time>2026-03-27T19:28:42.000Z</time></trkpt>
        <trkpt lat="29.639502" lon="104.638601"><ele>721.22925</ele><time>2026-03-27T19:28:45.000Z</time></trkpt>
        <trkpt lat="29.639566" lon="104.638603"><ele>720.9569</ele><time>2026-03-27T19:28:52.000Z</time></trkpt>
      </trkseg>
  </trk>
</gpx>